Observation data for Fort Lewis CO on 09/21/2020      Previous  Date  Next       Current Mesonet Observations  Soil Data  Daily Summary Page  Observations in Plain Language
KFL1 210500Z 04008KT 11/01 A3036 RMK A01 T01140006  RH  048%=      5-min Rain = 0
KFL1 210501Z 04007KT 11/01 A3036 RMK A01 T01130005  RH  048%=      5-min Rain = 0
KFL1 210502Z 03007KT 11/01 A3036 RMK A01 T01130005  RH  048%=      5-min Rain = 0
KFL1 210503Z 03006KT 11/01 A3036 RMK A01 T01140006  RH  048%=      5-min Rain = 0
KFL1 210504Z 03006KT 11/01 A3036 RMK A01 T01130005  RH  047%=      5-min Rain = 0
KFL1 210505Z 04006KT 11/01 A3036 RMK A01 T01120006  RH  048%=      5-min Rain = 0
KFL1 210506Z 03006KT 11/01 A3036 RMK A01 T01100005  RH  048%=      5-min Rain = 0
KFL1 210507Z 03006KT 11/00 A3036 RMK A01 T01100004  RH  048%=      5-min Rain = 0
KFL1 210508Z 03007KT 11/00 A3036 RMK A01 T01110004  RH  048%=      5-min Rain = 0
KFL1 210509Z 03006KT 11/00 A3036 RMK A01 T01120004  RH  047%=      5-min Rain = 0
KFL1 210510Z 04006KT 11/00 A3036 RMK A01 T01130004  RH  047%=      5-min Rain = 0
KFL1 210511Z 04007KT 11/00 A3036 RMK A01 T01130004  RH  047%=      5-min Rain = 0
KFL1 210512Z 04007KT 11/00 A3036 RMK A01 T01120003  RH  047%=      5-min Rain = 0
KFL1 210513Z 05008KT 11/01 A3036 RMK A01 T01120005  RH  048%=      5-min Rain = 0
KFL1 210514Z 05009KT 11/01 A3036 RMK A01 T01110005  RH  048%=      5-min Rain = 0
KFL1 210515Z 05010KT 11/00 A3036 RMK A01 T01100004  RH  048%=      5-min Rain = 0
KFL1 210516Z 05010KT 11/00 A3036 RMK A01 T01100004  RH  048%=      5-min Rain = 0
KFL1 210517Z 05010KT 11/00 A3036 RMK A01 T01090002  RH  048%=      5-min Rain = 0
KFL1 210518Z 05010KT 11/00 A3036 RMK A01 T01090002  RH  048%=      5-min Rain = 0
KFL1 210519Z 04010KT 11/00 A3036 RMK A01 T01110003  RH  047%=      5-min Rain = 0
KFL1 210520Z 04010KT 11/00 A3036 RMK A01 T01110001  RH  047%=      5-min Rain = 0
KFL1 210521Z 04009KT 11/00 A3036 RMK A01 T01140003  RH  046%=      5-min Rain = 0
KFL1 210522Z 05009KT 12/00 A3036 RMK A01 T01150003  RH  046%=      5-min Rain = 0
KFL1 210523Z 05009KT 12/00 A3036 RMK A01 T01150001  RH  046%=      5-min Rain = 0
KFL1 210524Z 04009KT 12/00 A3036 RMK A01 T01160002  RH  045%=      5-min Rain = 0
KFL1 210525Z 04009KT 12/00 A3036 RMK A01 T01170002  RH  045%=      5-min Rain = 0
KFL1 210526Z 04009KT 12/00 A3036 RMK A01 T01170002  RH  045%=      5-min Rain = 0
KFL1 210527Z 04010KT 12/00 A3036 RMK A01 T01170001  RH  045%=      5-min Rain = 0
KFL1 210528Z 04010KT 12/00 A3036 RMK A01 T01190002  RH  045%=      5-min Rain = 0
KFL1 210529Z 04009KT 12/00 A3036 RMK A01 T01190002  RH  045%=      5-min Rain = 0
KFL1 210530Z 04009KT 12/00 A3036 RMK A01 T01190002  RH  045%=      5-min Rain = 0
KFL1 210531Z 04009KT 12/00 A3036 RMK A01 T01190002  RH  045%=      5-min Rain = 0
KFL1 210532Z 04010KT 12/00 A3036 RMK A01 T01190003  RH  045%=      5-min Rain = 0
KFL1 210533Z 04009KT 12/00 A3036 RMK A01 T01190003  RH  045%=      5-min Rain = 0
KFL1 210534Z 04009KT 12/00 A3036 RMK A01 T01180003  RH  045%=      5-min Rain = 0
KFL1 210535Z 03008KT 12/00 A3036 RMK A01 T01190004  RH  045%=      5-min Rain = 0
KFL1 210536Z 03007KT 12/00 A3036 RMK A01 T01180004  RH  046%=      5-min Rain = 0
KFL1 210537Z 03006KT 12/00 A3036 RMK A01 T01170004  RH  046%=      5-min Rain = 0
KFL1 210538Z 04007KT 12/00 A3036 RMK A01 T01170003  RH  046%=      5-min Rain = 0
KFL1 210539Z 04008KT 12/00 A3036 RMK A01 T01160003  RH  046%=      5-min Rain = 0
KFL1 210540Z 04007KT 12/00 A3036 RMK A01 T01160004  RH  046%=      5-min Rain = 0
KFL1 210541Z 04008KT 12/00 A3036 RMK A01 T01150004  RH  046%=      5-min Rain = 0
KFL1 210542Z 04008KT 12/00 A3036 RMK A01 T01150004  RH  046%=      5-min Rain = 0
KFL1 210543Z 04009KT 12/00 A3036 RMK A01 T01150004  RH  046%=      5-min Rain = 0
KFL1 210544Z 04009KT 12/00 A3036 RMK A01 T01150004  RH  046%=      5-min Rain = 0
KFL1 210545Z 04008KT 12/00 A3036 RMK A01 T01150003  RH  046%=      5-min Rain = 0
KFL1 210546Z 03008KT 12/00 A3036 RMK A01 T01160004  RH  046%=      5-min Rain = 0
KFL1 210547Z 03007KT 12/00 A3036 RMK A01 T01160002  RH  045%=      5-min Rain = 0
KFL1 210548Z 03007KT 12/00 A3036 RMK A01 T01180003  RH  045%=      5-min Rain = 0
KFL1 210549Z 03007KT 12/00 A3036 RMK A01 T01170002  RH  045%=      5-min Rain = 0
KFL1 210550Z 03007KT 12/00 A3036 RMK A01 T01180002  RH  045%=      5-min Rain = 0
KFL1 210551Z 04007KT 12/00 A3036 RMK A01 T01180002  RH  045%=      5-min Rain = 0
KFL1 210552Z 04008KT 12/00 A3036 RMK A01 T01190003  RH  045%=      5-min Rain = 0
KFL1 210553Z 04008KT 12/00 A3036 RMK A01 T01190002  RH  045%=      5-min Rain = 0
KFL1 210554Z 03009KT 12/00 A3036 RMK A01 T01190002  RH  045%=      5-min Rain = 0
KFL1 210555Z 03009KT 12/00 A3036 RMK A01 T01190003  RH  045%=      5-min Rain = 0
KFL1 210556Z 03009KT 12/00 A3036 RMK A01 T01200003  RH  045%=      5-min Rain = 0
KFL1 210557Z 04009KT 12/00 A3036 RMK A01 T01190002  RH  045%=      5-min Rain = 0
KFL1 210558Z 04009KT 12/00 A3036 RMK A01 T01190003  RH  045%=      5-min Rain = 0
KFL1 210559Z 05009KT 12/00 A3036 RMK A01 T01180003  RH  045%=      5-min Rain = 0
KFL1 210600Z 05009KT 12/01 A3036 RMK A01 T01180005  RH  046%=      5-min Rain = 0
KFL1 210601Z 04009KT 12/01 A3036 RMK A01 T01160005  RH  046%=      5-min Rain = 0
KFL1 210602Z 05009KT 12/00 A3036 RMK A01 T01160004  RH  046%=      5-min Rain = 0
KFL1 210603Z 04010KT 12/00 A3036 RMK A01 T01150004  RH  046%=      5-min Rain = 0
KFL1 210604Z 04010KT 11/00 A3036 RMK A01 T01130002  RH  046%=      5-min Rain = 0
KFL1 210605Z 04009KT 11/00 A3036 RMK A01 T01140004  RH  047%=      5-min Rain = 0
KFL1 210606Z 04009KT 11/00 A3036 RMK A01 T01130003  RH  047%=      5-min Rain = 0
KFL1 210607Z 04009KT 11/00 A3036 RMK A01 T01140004  RH  047%=      5-min Rain = 0
KFL1 210608Z 04009KT 11/00 A3036 RMK A01 T01130004  RH  047%=      5-min Rain = 0
KFL1 210609Z 04010KT 11/00 A3036 RMK A01 T01120003  RH  047%=      5-min Rain = 0
KFL1 210610Z 04009KT 11/00 A3036 RMK A01 T01120003  RH  047%=      5-min Rain = 0
KFL1 210611Z 04010KT 11/00 A3036 RMK A01 T01130004  RH  047%=      5-min Rain = 0
KFL1 210612Z 04010KT 11/00 A3036 RMK A01 T01140003  RH  047%=      5-min Rain = 0
KFL1 210613Z 04010KT 11/00 A3036 RMK A01 T01140003  RH  046%=      5-min Rain = 0
KFL1 210614Z 04010KT 11/00 A3036 RMK A01 T01140003  RH  046%=      5-min Rain = 0
KFL1 210615Z 04010KT 12/00 A3036 RMK A01 T01150004  RH  046%=      5-min Rain = 0
KFL1 210616Z 04009KT 12/00 A3036 RMK A01 T01150004  RH  046%=      5-min Rain = 0
KFL1 210617Z 04009KT 11/00 A3036 RMK A01 T01140004  RH  047%=      5-min Rain = 0
KFL1 210618Z 04009KT 12/01 A3036 RMK A01 T01150005  RH  047%=      5-min Rain = 0
KFL1 210619Z 04009KT 11/00 A3036 RMK A01 T01130004  RH  047%=      5-min Rain = 0
KFL1 210620Z 04009KT 11/01 A3036 RMK A01 T01130005  RH  047%=      5-min Rain = 0
KFL1 210621Z 04009KT 11/00 A3036 RMK A01 T01110004  RH  048%=      5-min Rain = 0
KFL1 210622Z 04009KT 11/01 A3036 RMK A01 T01110005  RH  048%=      5-min Rain = 0
KFL1 210623Z 04009KT 11/01 A3036 RMK A01 T01100005  RH  048%=      5-min Rain = 0
KFL1 210624Z 04008KT 11/01 A3036 RMK A01 T01110006  RH  048%=      5-min Rain = 0
KFL1 210625Z 04009KT 11/01 A3036 RMK A01 T01100006  RH  049%=      5-min Rain = 0
KFL1 210626Z 04009KT 11/01 A3036 RMK A01 T01090006  RH  049%=      5-min Rain = 0
KFL1 210627Z 04008KT 11/01 A3036 RMK A01 T01090006  RH  049%=      5-min Rain = 0
KFL1 210628Z 04008KT 11/01 A3036 RMK A01 T01090007  RH  049%=      5-min Rain = 0
KFL1 210629Z 04007KT 11/01 A3036 RMK A01 T01080006  RH  049%=      5-min Rain = 0
KFL1 210630Z 04007KT 11/01 A3036 RMK A01 T01080006  RH  049%=      5-min Rain = 0
KFL1 210631Z 04007KT 11/01 A3036 RMK A01 T01070006  RH  050%=      5-min Rain = 0
KFL1 210632Z 04007KT 11/01 A3036 RMK A01 T01080007  RH  050%=      5-min Rain = 0
KFL1 210633Z 04007KT 11/01 A3036 RMK A01 T01080007  RH  050%=      5-min Rain = 0
KFL1 210634Z 04008KT 11/01 A3036 RMK A01 T01080007  RH  050%=      5-min Rain = 0
KFL1 210635Z 04008KT 11/01 A3036 RMK A01 T01080007  RH  050%=      5-min Rain = 0
KFL1 210636Z 04008KT 11/01 A3036 RMK A01 T01090008  RH  050%=      5-min Rain = 0
KFL1 210637Z 04008KT 11/01 A3036 RMK A01 T01080007  RH  050%=      5-min Rain = 0
KFL1 210638Z 04008KT 11/01 A3036 RMK A01 T01070007  RH  050%=      5-min Rain = 0
KFL1 210639Z 04008KT 11/01 A3036 RMK A01 T01080008  RH  050%=      5-min Rain = 0
KFL1 210640Z 04008KT 11/01 A3036 RMK A01 T01060007  RH  050%=      5-min Rain = 0
KFL1 210641Z 04008KT 11/01 A3036 RMK A01 T01060008  RH  051%=      5-min Rain = 0
KFL1 210642Z 04007KT 11/01 A3036 RMK A01 T01050008  RH  051%=      5-min Rain = 0
KFL1 210643Z 04008KT 11/01 A3036 RMK A01 T01050008  RH  051%=      5-min Rain = 0
KFL1 210644Z 04008KT 11/01 A3036 RMK A01 T01050009  RH  051%=      5-min Rain = 0
KFL1 210645Z 04007KT 10/01 A3036 RMK A01 T01040008  RH  051%=      5-min Rain = 0
KFL1 210646Z 04007KT 10/01 A3036 RMK A01 T01040008  RH  051%=      5-min Rain = 0
KFL1 210647Z 03006KT 10/01 A3036 RMK A01 T01040008  RH  051%=      5-min Rain = 0
KFL1 210648Z 03006KT 10/01 A3036 RMK A01 T01030006  RH  051%=      5-min Rain = 0
KFL1 210649Z 03006KT 10/01 A3036 RMK A01 T01040006  RH  051%=      5-min Rain = 0
KFL1 210650Z 04006KT 10/01 A3036 RMK A01 T01040005  RH  050%=      5-min Rain = 0
KFL1 210651Z 03005KT 10/00 A3036 RMK A01 T01040004  RH  050%=      5-min Rain = 0
KFL1 210652Z 03005KT 10/01 A3036 RMK A01 T01040005  RH  050%=      5-min Rain = 0
KFL1 210653Z 03005KT 10/00 A3036 RMK A01 T01030004  RH  050%=      5-min Rain = 0
KFL1 210654Z 03005KT 10/00 A3036 RMK A01 T01020004  RH  050%=      5-min Rain = 0
KFL1 210655Z 04006KT 10/00 A3036 RMK A01 T01000004  RH  051%=      5-min Rain = 0
KFL1 210656Z 04006KT 10/00 A3036 RMK A01 T00980004  RH  052%=      5-min Rain = 0
KFL1 210657Z 04006KT 10/00 A3036 RMK A01 T00980004  RH  052%=      5-min Rain = 0
KFL1 210658Z 04006KT 10/00 A3036 RMK A01 T00990004  RH  051%=      5-min Rain = 0
KFL1 210659Z 04006KT 10/00 A3036 RMK A01 T01010004  RH  051%=      5-min Rain = 0
KFL1 210700Z 04006KT 10/00 A3036 RMK A01 T01010004  RH  051%=      5-min Rain = 0
KFL1 210701Z 03007KT 10/01 A3036 RMK A01 T01020006  RH  051%=      5-min Rain = 0
KFL1 210702Z 04006KT 10/01 A3036 RMK A01 T01010005  RH  051%=      5-min Rain = 0
KFL1 210703Z 03006KT 10/01 A3036 RMK A01 T01020006  RH  051%=      5-min Rain = 0
KFL1 210704Z 03006KT 10/01 A3036 RMK A01 T01020006  RH  051%=      5-min Rain = 0
KFL1 210705Z 03006KT 10/00 A3036 RMK A01 T01010004  RH  051%=      5-min Rain = 0
KFL1 210706Z 03005KT 10/01 A3036 RMK A01 T01000006  RH  052%=      5-min Rain = 0
KFL1 210707Z 03005KT 10/01 A3036 RMK A01 T00970006  RH  053%=      5-min Rain = 0
KFL1 210708Z 03005KT 09/01 A3036 RMK A01 T00940006  RH  054%=      5-min Rain = 0
KFL1 210709Z 03005KT 09/01 A3036 RMK A01 T00930008  RH  055%=      5-min Rain = 0
KFL1 210710Z 03006KT 09/01 A3036 RMK A01 T00900007  RH  056%=      5-min Rain = 0
KFL1 210711Z 03005KT 09/01 A3036 RMK A01 T00900008  RH  057%=      5-min Rain = 0
KFL1 210712Z 03005KT 09/01 A3036 RMK A01 T00880005  RH  056%=      5-min Rain = 0
KFL1 210713Z 03005KT 09/01 A3036 RMK A01 T00900006  RH  056%=      5-min Rain = 0
KFL1 210714Z 03005KT 09/01 A3036 RMK A01 T00900005  RH  055%=      5-min Rain = 0
KFL1 210715Z 03005KT 09/01 A3036 RMK A01 T00930006  RH  055%=      5-min Rain = 0
KFL1 210716Z 03005KT 09/01 A3036 RMK A01 T00930007  RH  055%=      5-min Rain = 0
KFL1 210717Z 03005KT 09/01 A3036 RMK A01 T00920006  RH  055%=      5-min Rain = 0
KFL1 210718Z 03005KT 09/01 A3036 RMK A01 T00920007  RH  055%=      5-min Rain = 0
KFL1 210719Z 03005KT 09/01 A3036 RMK A01 T00910005  RH  055%=      5-min Rain = 0
KFL1 210720Z 03005KT 09/01 A3036 RMK A01 T00910005  RH  055%=      5-min Rain = 0
KFL1 210721Z 03005KT 09/01 A3036 RMK A01 T00930009  RH  055%=      5-min Rain = 0
KFL1 210722Z 03005KT 09/01 A3036 RMK A01 T00920008  RH  056%=      5-min Rain = 0
KFL1 210723Z 03005KT 09/01 A3036 RMK A01 T00910008  RH  056%=      5-min Rain = 0
KFL1 210724Z 03005KT 09/01 A3036 RMK A01 T00900008  RH  057%=      5-min Rain = 0
KFL1 210725Z 02006KT 09/01 A3036 RMK A01 T00890009  RH  057%=      5-min Rain = 0
KFL1 210726Z 03008KT 09/01 A3036 RMK A01 T00870009  RH  058%=      5-min Rain = 0
KFL1 210727Z 03006KT 09/01 A3036 RMK A01 T00860008  RH  058%=      5-min Rain = 0
KFL1 210728Z 03005KT 09/01 A3036 RMK A01 T00860006  RH  057%=      5-min Rain = 0
KFL1 210729Z 03005KT 09/01 A3036 RMK A01 T00860005  RH  057%=      5-min Rain = 0
KFL1 210730Z 03005KT 09/01 A3036 RMK A01 T00900005  RH  055%=      5-min Rain = 0
KFL1 210731Z 03005KT 09/01 A3036 RMK A01 T00920006  RH  055%=      5-min Rain = 0
KFL1 210732Z 03005KT 09/01 A3036 RMK A01 T00920007  RH  055%=      5-min Rain = 0
KFL1 210733Z 03005KT 09/01 A3036 RMK A01 T00910008  RH  056%=      5-min Rain = 0
KFL1 210734Z 03005KT 09/01 A3036 RMK A01 T00900007  RH  056%=      5-min Rain = 0
KFL1 210735Z 03005KT 09/01 A3036 RMK A01 T00890008  RH  057%=      5-min Rain = 0
KFL1 210736Z 03005KT 09/01 A3036 RMK A01 T00880007  RH  057%=      5-min Rain = 0
KFL1 210737Z 03005KT 09/01 A3036 RMK A01 T00870006  RH  057%=      5-min Rain = 0
KFL1 210738Z 03006KT 09/01 A3036 RMK A01 T00890005  RH  056%=      5-min Rain = 0
KFL1 210739Z 03005KT 09/01 A3036 RMK A01 T00900005  RH  055%=      5-min Rain = 0
KFL1 210740Z 03005KT 09/00 A3036 RMK A01 T00900004  RH  055%=      5-min Rain = 0
KFL1 210741Z 03005KT 09/01 A3036 RMK A01 T00910005  RH  055%=      5-min Rain = 0
KFL1 210742Z 03005KT 09/00 A3036 RMK A01 T00920004  RH  054%=      5-min Rain = 0
KFL1 210743Z 03006KT 09/01 A3036 RMK A01 T00930006  RH  054%=      5-min Rain = 0
KFL1 210744Z 03006KT 09/01 A3036 RMK A01 T00930007  RH  055%=      5-min Rain = 0
KFL1 210745Z 03006KT 09/01 A3036 RMK A01 T00920008  RH  056%=      5-min Rain = 0
KFL1 210746Z 03006KT 09/01 A3036 RMK A01 T00870006  RH  057%=      5-min Rain = 0
KFL1 210747Z 03005KT 09/01 A3036 RMK A01 T00870009  RH  058%=      5-min Rain = 0
KFL1 210748Z 04005KT 09/01 A3036 RMK A01 T00850007  RH  058%=      5-min Rain = 0
KFL1 210749Z 03006KT 09/01 A3036 RMK A01 T00850005  RH  057%=      5-min Rain = 0
KFL1 210750Z 03005KT 09/01 A3036 RMK A01 T00890006  RH  056%=      5-min Rain = 0
KFL1 210751Z 03005KT 09/01 A3036 RMK A01 T00890006  RH  056%=      5-min Rain = 0
KFL1 210752Z 02006KT 09/01 A3036 RMK A01 T00900008  RH  057%=      5-min Rain = 0
KFL1 210753Z 02008KT 09/01 A3036 RMK A01 T00860007  RH  058%=      5-min Rain = 0
KFL1 210754Z 03008KT 08/01 A3036 RMK A01 T00840008  RH  059%=      5-min Rain = 0
KFL1 210755Z 03007KT 09/01 A3036 RMK A01 T00860010  RH  059%=      5-min Rain = 0
KFL1 210756Z 03007KT 08/01 A3036 RMK A01 T00840009  RH  059%=      5-min Rain = 0
KFL1 210757Z 02006KT 09/01 A3036 RMK A01 T00850008  RH  058%=      5-min Rain = 0
KFL1 210758Z 02007KT 09/01 A3036 RMK A01 T00860010  RH  059%=      5-min Rain = 0
KFL1 210759Z 03008KT 09/01 A3036 RMK A01 T00850010  RH  059%=      5-min Rain = 0
KFL1 210800Z 03008KT 08/01 A3036 RMK A01 T00840008  RH  059%=      5-min Rain = 0
KFL1 210801Z 03007KT 09/01 A3036 RMK A01 T00850008  RH  059%=      5-min Rain = 0
KFL1 210802Z 02008KT 08/01 A3035 RMK A01 T00840008  RH  059%=      5-min Rain = 0
KFL1 210803Z 03008KT 09/01 A3035 RMK A01 T00850009  RH  059%=      5-min Rain = 0
KFL1 210804Z 03007KT 09/01 A3035 RMK A01 T00870010  RH  059%=      5-min Rain = 0
KFL1 210805Z 03006KT 09/01 A3035 RMK A01 T00860009  RH  058%=      5-min Rain = 0
KFL1 210806Z 03006KT 09/01 A3035 RMK A01 T00860008  RH  058%=      5-min Rain = 0
KFL1 210807Z 03006KT 09/01 A3035 RMK A01 T00860007  RH  058%=      5-min Rain = 0
KFL1 210808Z 02006KT 09/01 A3035 RMK A01 T00870007  RH  057%=      5-min Rain = 0
KFL1 210809Z 03007KT 09/01 A3035 RMK A01 T00870008  RH  058%=      5-min Rain = 0
KFL1 210810Z 03006KT 09/01 A3035 RMK A01 T00870007  RH  057%=      5-min Rain = 0
KFL1 210811Z 03005KT 09/01 A3035 RMK A01 T00870005  RH  056%=      5-min Rain = 0
KFL1 210812Z 03006KT 09/01 A3035 RMK A01 T00890007  RH  056%=      5-min Rain = 0
KFL1 210813Z 03008KT 09/01 A3035 RMK A01 T00890009  RH  057%=      5-min Rain = 0
KFL1 210814Z 03007KT 09/01 A3035 RMK A01 T00880008  RH  057%=      5-min Rain = 0
KFL1 210815Z 03006KT 09/01 A3035 RMK A01 T00880008  RH  057%=      5-min Rain = 0
KFL1 210816Z 03005KT 09/01 A3035 RMK A01 T00870006  RH  057%=      5-min Rain = 0
KFL1 210817Z 03005KT 09/01 A3035 RMK A01 T00870006  RH  057%=      5-min Rain = 0
KFL1 210818Z 04005KT 09/01 A3035 RMK A01 T00890006  RH  056%=      5-min Rain = 0
KFL1 210819Z 03005KT 09/01 A3035 RMK A01 T00890006  RH  056%=      5-min Rain = 0
KFL1 210820Z 03005KT 09/01 A3035 RMK A01 T00880006  RH  057%=      5-min Rain = 0
KFL1 210821Z 03006KT 09/01 A3035 RMK A01 T00860005  RH  057%=      5-min Rain = 0
KFL1 210822Z 03006KT 09/01 A3035 RMK A01 T00860007  RH  058%=      5-min Rain = 0
KFL1 210823Z 04005KT 09/01 A3035 RMK A01 T00850007  RH  058%=      5-min Rain = 0
KFL1 210824Z 03006KT 08/01 A3035 RMK A01 T00840007  RH  058%=      5-min Rain = 0
KFL1 210825Z 03006KT 09/01 A3035 RMK A01 T00860009  RH  058%=      5-min Rain = 0
KFL1 210826Z 03005KT 09/01 A3035 RMK A01 T00850005  RH  057%=      5-min Rain = 0
KFL1 210827Z 03005KT 09/01 A3035 RMK A01 T00860006  RH  057%=      5-min Rain = 0
KFL1 210828Z 03006KT 09/00 A3035 RMK A01 T00860004  RH  056%=      5-min Rain = 0
KFL1 210829Z 03006KT 09/01 A3035 RMK A01 T00900005  RH  055%=      5-min Rain = 0
KFL1 210830Z 03006KT 09/00 A3035 RMK A01 T00910004  RH  055%=      5-min Rain = 0
KFL1 210831Z 04006KT 09/01 A3035 RMK A01 T00930005  RH  054%=      5-min Rain = 0
KFL1 210832Z 04006KT 09/01 A3035 RMK A01 T00940005  RH  054%=      5-min Rain = 0
KFL1 210833Z 04007KT 09/01 A3035 RMK A01 T00940005  RH  054%=      5-min Rain = 0
KFL1 210834Z 03008KT 10/01 A3035 RMK A01 T00950006  RH  054%=      5-min Rain = 0
KFL1 210835Z 04007KT 10/01 A3035 RMK A01 T00970007  RH  054%=      5-min Rain = 0
KFL1 210836Z 04008KT 10/01 A3035 RMK A01 T00970006  RH  053%=      5-min Rain = 0
KFL1 210837Z 04007KT 10/01 A3035 RMK A01 T00960005  RH  053%=      5-min Rain = 0
KFL1 210838Z 04008KT 10/01 A3035 RMK A01 T00970006  RH  053%=      5-min Rain = 0
KFL1 210839Z 04007KT 10/01 A3035 RMK A01 T00970006  RH  053%=      5-min Rain = 0
KFL1 210840Z 04008KT 10/01 A3035 RMK A01 T00970005  RH  053%=      5-min Rain = 0
KFL1 210841Z 04007KT 10/01 A3035 RMK A01 T00970006  RH  053%=      5-min Rain = 0
KFL1 210842Z 04007KT 10/01 A3035 RMK A01 T00960006  RH  053%=      5-min Rain = 0
KFL1 210843Z 04008KT 10/01 A3035 RMK A01 T00960007  RH  054%=      5-min Rain = 0
KFL1 210844Z 03007KT 10/01 A3035 RMK A01 T00970007  RH  054%=      5-min Rain = 0
KFL1 210845Z 04006KT 10/01 A3035 RMK A01 T00970007  RH  054%=      5-min Rain = 0
KFL1 210846Z 03007KT 10/01 A3035 RMK A01 T00980007  RH  053%=      5-min Rain = 0
KFL1 210847Z 04007KT 10/01 A3035 RMK A01 T00980006  RH  053%=      5-min Rain = 0
KFL1 210848Z 04008KT 10/01 A3035 RMK A01 T00970005  RH  053%=      5-min Rain = 0
KFL1 210849Z 04008KT 10/01 A3035 RMK A01 T00980006  RH  053%=      5-min Rain = 0
KFL1 210850Z 04008KT 10/01 A3035 RMK A01 T00990007  RH  053%=      5-min Rain = 0
KFL1 210851Z 04007KT 10/01 A3035 RMK A01 T00990006  RH  053%=      5-min Rain = 0
KFL1 210852Z 04007KT 10/01 A3035 RMK A01 T00980006  RH  053%=      5-min Rain = 0
KFL1 210853Z 04006KT 10/01 A3035 RMK A01 T00970006  RH  053%=      5-min Rain = 0
KFL1 210854Z 04008KT 10/01 A3035 RMK A01 T00980007  RH  053%=      5-min Rain = 0
KFL1 210855Z 04008KT 10/01 A3035 RMK A01 T00980008  RH  053%=      5-min Rain = 0
KFL1 210856Z 04008KT 10/01 A3035 RMK A01 T00970005  RH  053%=      5-min Rain = 0
KFL1 210857Z 04008KT 10/01 A3035 RMK A01 T00970006  RH  053%=      5-min Rain = 0
KFL1 210858Z 04007KT 10/01 A3035 RMK A01 T00960005  RH  053%=      5-min Rain = 0
KFL1 210859Z 04007KT 10/01 A3035 RMK A01 T00970005  RH  053%=      5-min Rain = 0
KFL1 210900Z 03007KT 10/01 A3035 RMK A01 T00980006  RH  053%=      5-min Rain = 0
KFL1 210901Z 03007KT 10/01 A3035 RMK A01 T00980005  RH  052%=      5-min Rain = 0
KFL1 210902Z 03008KT 10/01 A3035 RMK A01 T00990005  RH  052%=      5-min Rain = 0
KFL1 210903Z 03008KT 10/00 A3035 RMK A01 T01000004  RH  051%=      5-min Rain = 0
KFL1 210904Z 04007KT 10/00 A3035 RMK A01 T01000004  RH  051%=      5-min Rain = 0
KFL1 210905Z 04007KT 10/00 A3035 RMK A01 T01010004  RH  051%=      5-min Rain = 0
KFL1 210906Z 03006KT 10/00 A3035 RMK A01 T01020004  RH  051%=      5-min Rain = 0
KFL1 210907Z 03006KT 10/00 A3035 RMK A01 T01010003  RH  050%=      5-min Rain = 0
KFL1 210908Z 03007KT 10/00 A3035 RMK A01 T01010003  RH  050%=      5-min Rain = 0
KFL1 210909Z 04007KT 10/00 A3035 RMK A01 T01010003  RH  050%=      5-min Rain = 0
KFL1 210910Z 03006KT 10/00 A3035 RMK A01 T01020004  RH  050%=      5-min Rain = 0
KFL1 210911Z 03006KT 10/00 A3035 RMK A01 T01020004  RH  050%=      5-min Rain = 0
KFL1 210912Z 03007KT 10/00 A3035 RMK A01 T01010003  RH  050%=      5-min Rain = 0
KFL1 210913Z 03007KT 10/00 A3035 RMK A01 T01020002  RH  050%=      5-min Rain = 0
KFL1 210914Z 03007KT 10/00 A3035 RMK A01 T01020002  RH  050%=      5-min Rain = 0
KFL1 210915Z 03007KT 10/00 A3035 RMK A01 T01040003  RH  049%=      5-min Rain = 0
KFL1 210916Z 04008KT 10/00 A3035 RMK A01 T01040001  RH  049%=      5-min Rain = 0
KFL1 210917Z 04008KT 11/00 A3035 RMK A01 T01050002  RH  049%=      5-min Rain = 0
KFL1 210918Z 04007KT 11/00 A3035 RMK A01 T01050002  RH  049%=      5-min Rain = 0
KFL1 210919Z 03007KT 11/00 A3035 RMK A01 T01060003  RH  049%=      5-min Rain = 0
KFL1 210920Z 04007KT 11/00 A3035 RMK A01 T01050003  RH  049%=      5-min Rain = 0
KFL1 210921Z 04007KT 11/00 A3035 RMK A01 T01050003  RH  049%=      5-min Rain = 0
KFL1 210922Z 03008KT 11/00 A3035 RMK A01 T01050003  RH  049%=      5-min Rain = 0
KFL1 210923Z 04007KT 11/00 A3035 RMK A01 T01050003  RH  049%=      5-min Rain = 0
KFL1 210924Z 03007KT 10/00 A3035 RMK A01 T01040003  RH  049%=      5-min Rain = 0
KFL1 210925Z 03007KT 10/00 A3035 RMK A01 T01040002  RH  049%=      5-min Rain = 0
KFL1 210926Z 03006KT 10/00 A3035 RMK A01 T01040002  RH  049%=      5-min Rain = 0
KFL1 210927Z 03006KT 11/00 A3035 RMK A01 T01050003  RH  049%=      5-min Rain = 0
KFL1 210928Z 03007KT 11/00 A3035 RMK A01 T01050002  RH  049%=      5-min Rain = 0
KFL1 210929Z 03006KT 10/00 A3035 RMK A01 T01040002  RH  049%=      5-min Rain = 0
KFL1 210930Z 03006KT 10/00 A3035 RMK A01 T01040001  RH  049%=      5-min Rain = 0
KFL1 210931Z 03006KT 10/00 A3035 RMK A01 T01040001  RH  049%=      5-min Rain = 0
KFL1 210932Z 03006KT 11/00 A3035 RMK A01 T01050002  RH  049%=      5-min Rain = 0
KFL1 210933Z 03006KT 11/00 A3035 RMK A01 T01050002  RH  049%=      5-min Rain = 0
KFL1 210934Z 03005KT 10/00 A3035 RMK A01 T01040002  RH  049%=      5-min Rain = 0
KFL1 210935Z 03006KT 10/00 A3035 RMK A01 T01040002  RH  049%=      5-min Rain = 0
KFL1 210936Z 03006KT 10/00 A3035 RMK A01 T01020002  RH  050%=      5-min Rain = 0
KFL1 210937Z 03006KT 10/00 A3035 RMK A01 T01030003  RH  050%=      5-min Rain = 0
KFL1 210938Z 03006KT 10/00 A3035 RMK A01 T01020002  RH  050%=      5-min Rain = 0
KFL1 210939Z 03006KT 10/00 A3035 RMK A01 T01020003  RH  050%=      5-min Rain = 0
KFL1 210940Z 03006KT 10/00 A3035 RMK A01 T01020002  RH  050%=      5-min Rain = 0
KFL1 210941Z 04006KT 10/00 A3035 RMK A01 T01010001  RH  050%=      5-min Rain = 0
KFL1 210942Z 03006KT 10/00 A3035 RMK A01 T01010003  RH  050%=      5-min Rain = 0
KFL1 210943Z 03006KT 10/00 A3035 RMK A01 T01020003  RH  050%=      5-min Rain = 0
KFL1 210944Z 03006KT 10/00 A3035 RMK A01 T01010002  RH  050%=      5-min Rain = 0
KFL1 210945Z 03006KT 10/00 A3035 RMK A01 T01020003  RH  050%=      5-min Rain = 0
KFL1 210946Z 03006KT 10/00 A3035 RMK A01 T01010002  RH  050%=      5-min Rain = 0
KFL1 210947Z 03007KT 10/00 A3035 RMK A01 T01010004  RH  051%=      5-min Rain = 0
KFL1 210948Z 03006KT 10/00 A3035 RMK A01 T01010004  RH  051%=      5-min Rain = 0
KFL1 210949Z 04006KT 10/00 A3035 RMK A01 T01000003  RH  051%=      5-min Rain = 0
KFL1 210950Z 03006KT 10/00 A3035 RMK A01 T01010004  RH  051%=      5-min Rain = 0
KFL1 210951Z 03006KT 10/00 A3035 RMK A01 T01000003  RH  051%=      5-min Rain = 0
KFL1 210952Z 04006KT 10/00 A3035 RMK A01 T01000003  RH  051%=      5-min Rain = 0
KFL1 210953Z 04007KT 10/00 A3035 RMK A01 T01010004  RH  051%=      5-min Rain = 0
KFL1 210954Z 04007KT 10/00 A3035 RMK A01 T01010004  RH  051%=      5-min Rain = 0
KFL1 210955Z 04008KT 10/00 A3035 RMK A01 T01010004  RH  051%=      5-min Rain = 0
KFL1 210956Z 04008KT 10/00 A3035 RMK A01 T01000004  RH  051%=      5-min Rain = 0
KFL1 210957Z 04008KT 10/01 A3035 RMK A01 T01010006  RH  052%=      5-min Rain = 0
KFL1 210958Z 04008KT 10/01 A3035 RMK A01 T01000005  RH  052%=      5-min Rain = 0
KFL1 210959Z 04008KT 10/01 A3035 RMK A01 T01000006  RH  052%=      5-min Rain = 0
KFL1 211000Z 04008KT 10/01 A3035 RMK A01 T01000006  RH  052%=      5-min Rain = 0
KFL1 211001Z 04008KT 10/01 A3035 RMK A01 T01010007  RH  052%=      5-min Rain = 0
KFL1 211002Z 04009KT 10/01 A3035 RMK A01 T01000006  RH  052%=      5-min Rain = 0
KFL1 211003Z 04009KT 10/01 A3035 RMK A01 T01000006  RH  052%=      5-min Rain = 0
KFL1 211004Z 04008KT 10/01 A3035 RMK A01 T00990005  RH  052%=      5-min Rain = 0
KFL1 211005Z 04009KT 10/01 A3035 RMK A01 T01000006  RH  052%=      5-min Rain = 0
KFL1 211006Z 04008KT 10/01 A3035 RMK A01 T01000006  RH  052%=      5-min Rain = 0
KFL1 211007Z 04008KT 10/01 A3035 RMK A01 T01010006  RH  052%=      5-min Rain = 0
KFL1 211008Z 04008KT 10/01 A3035 RMK A01 T01000005  RH  052%=      5-min Rain = 0
KFL1 211009Z 04009KT 10/01 A3035 RMK A01 T00990005  RH  052%=      5-min Rain = 0
KFL1 211010Z 04009KT 10/01 A3035 RMK A01 T01000006  RH  052%=      5-min Rain = 0
KFL1 211011Z 04009KT 10/01 A3035 RMK A01 T01000006  RH  052%=      5-min Rain = 0
KFL1 211012Z 04010KT 10/01 A3035 RMK A01 T01000006  RH  052%=      5-min Rain = 0
KFL1 211013Z 04009KT 10/01 A3035 RMK A01 T00990006  RH  052%=      5-min Rain = 0
KFL1 211014Z 04010KT 10/00 A3035 RMK A01 T00980004  RH  052%=      5-min Rain = 0
KFL1 211015Z 04010KT 10/01 A3035 RMK A01 T00990006  RH  052%=      5-min Rain = 0
KFL1 211016Z 04009KT 10/01 A3035 RMK A01 T00990005  RH  052%=      5-min Rain = 0
KFL1 211017Z 04010KT 10/01 A3035 RMK A01 T01000006  RH  052%=      5-min Rain = 0
KFL1 211018Z 05009KT 10/01 A3035 RMK A01 T00990006  RH  052%=      5-min Rain = 0
KFL1 211019Z 05010KT 10/01 A3035 RMK A01 T00990006  RH  052%=      5-min Rain = 0
KFL1 211020Z 05010KT 10/01 A3035 RMK A01 T01000007  RH  052%=      5-min Rain = 0
KFL1 211021Z 04010KT 10/01 A3035 RMK A01 T00990005  RH  052%=      5-min Rain = 0
KFL1 211022Z 05009KT 10/01 A3035 RMK A01 T00980005  RH  052%=      5-min Rain = 0
KFL1 211023Z 05009KT 10/00 A3035 RMK A01 T00980004  RH  052%=      5-min Rain = 0
KFL1 211024Z 05010KT 10/01 A3035 RMK A01 T00980005  RH  052%=      5-min Rain = 0
KFL1 211025Z 05009KT 10/01 A3035 RMK A01 T00980006  RH  053%=      5-min Rain = 0
KFL1 211026Z 05009KT 10/01 A3035 RMK A01 T00990006  RH  053%=      5-min Rain = 0
KFL1 211027Z 05008KT 10/01 A3035 RMK A01 T00970005  RH  053%=      5-min Rain = 0
KFL1 211028Z 05008KT 10/01 A3036 RMK A01 T00970005  RH  053%=      5-min Rain = 0
KFL1 211029Z 05007KT 10/01 A3036 RMK A01 T00970006  RH  053%=      5-min Rain = 0
KFL1 211030Z 06007KT 10/00 A3036 RMK A01 T00950004  RH  053%=      5-min Rain = 0
KFL1 211031Z 05008KT 10/00 A3036 RMK A01 T00960004  RH  053%=      5-min Rain = 0
KFL1 211032Z 06007KT 10/00 A3036 RMK A01 T00970004  RH  052%=      5-min Rain = 0
KFL1 211033Z 06007KT 10/01 A3036 RMK A01 T00990005  RH  052%=      5-min Rain = 0
KFL1 211034Z 05008KT 10/00 A3036 RMK A01 T00990004  RH  052%=      5-min Rain = 0
KFL1 211035Z 06007KT 10/01 A3036 RMK A01 T01000005  RH  052%=      5-min Rain = 0
KFL1 211036Z 05007KT 10/00 A3036 RMK A01 T00990004  RH  052%=      5-min Rain = 0
KFL1 211037Z 06007KT 10/01 A3036 RMK A01 T01010005  RH  051%=      5-min Rain = 0
KFL1 211038Z 05007KT 10/00 A3036 RMK A01 T01010004  RH  051%=      5-min Rain = 0
KFL1 211039Z 05007KT 10/00 A3036 RMK A01 T01020004  RH  051%=      5-min Rain = 0
KFL1 211040Z 06007KT 10/00 A3036 RMK A01 T01020003  RH  050%=      5-min Rain = 0
KFL1 211041Z 05007KT 10/00 A3036 RMK A01 T01030003  RH  050%=      5-min Rain = 0
KFL1 211042Z 06009KT 10/00 A3036 RMK A01 T01030002  RH  050%=      5-min Rain = 0
KFL1 211043Z 05009KT 11/00 A3036 RMK A01 T01050002  RH  049%=      5-min Rain = 0
KFL1 211044Z 05009KT 11/00 A3036 RMK A01 T01060001  RH  048%=      5-min Rain = 0
KFL1 211045Z 05009KT 11/00 A3036 RMK A01 T01100002  RH  047%=      5-min Rain = 0
KFL1 211046Z 05008KT 11/00 A3036 RMK A01 T01120002  RH  047%=      5-min Rain = 0
KFL1 211047Z 05009KT 11/00 A3036 RMK A01 T01130002  RH  046%=      5-min Rain = 0
KFL1 211048Z 05007KT 11/00 A3036 RMK A01 T01140002  RH  046%=      5-min Rain = 0
KFL1 211049Z 06007KT 12/00 A3036 RMK A01 T01150004  RH  046%=      5-min Rain = 0
KFL1 211050Z 05008KT 11/00 A3036 RMK A01 T01130002  RH  046%=      5-min Rain = 0
KFL1 211051Z 05009KT 11/00 A3036 RMK A01 T01140003  RH  046%=      5-min Rain = 0
KFL1 211052Z 05009KT 11/00 A3036 RMK A01 T01130002  RH  046%=      5-min Rain = 0
KFL1 211053Z 05009KT 11/00 A3036 RMK A01 T01130001  RH  046%=      5-min Rain = 0
KFL1 211054Z 05007KT 11/00 A3036 RMK A01 T01130003  RH  047%=      5-min Rain = 0
KFL1 211055Z 05008KT 11/00 A3036 RMK A01 T01130003  RH  047%=      5-min Rain = 0
KFL1 211056Z 05008KT 11/00 A3036 RMK A01 T01110001  RH  047%=      5-min Rain = 0
KFL1 211057Z 05008KT 11/00 A3036 RMK A01 T01130002  RH  046%=      5-min Rain = 0
KFL1 211058Z 05008KT 11/00 A3036 RMK A01 T01130001  RH  046%=      5-min Rain = 0
KFL1 211059Z 05009KT 11/00 A3036 RMK A01 T01140001  RH  046%=      5-min Rain = 0
KFL1 211100Z 05008KT 12/00 A3036 RMK A01 T01150001  RH  045%=      5-min Rain = 0
KFL1 211101Z 05007KT 12/00 A3036 RMK A01 T01170000  RH  045%=      5-min Rain = 0
KFL1 211102Z 04007KT 12/00 A3036 RMK A01 T011700-0  RH  044%=      5-min Rain = 0
KFL1 211103Z 05008KT 12/00 A3036 RMK A01 T01200001  RH  044%=      5-min Rain = 0
KFL1 211104Z 04010KT 12/00 A3036 RMK A01 T01200001  RH  044%=      5-min Rain = 0
KFL1 211105Z 05009KT 12/00 A3037 RMK A01 T01200000  RH  044%=      5-min Rain = 0
KFL1 211106Z 05008KT 12/00 A3037 RMK A01 T01210001  RH  044%=      5-min Rain = 0
KFL1 211107Z 05007KT 12/00 A3037 RMK A01 T01210003  RH  044%=      5-min Rain = 0
KFL1 211108Z 05008KT 12/00 A3037 RMK A01 T01190003  RH  045%=      5-min Rain = 0
KFL1 211109Z 05007KT 12/00 A3037 RMK A01 T01180003  RH  045%=      5-min Rain = 0
KFL1 211110Z 05008KT 12/00 A3037 RMK A01 T01170003  RH  046%=      5-min Rain = 0
KFL1 211111Z 05009KT 12/00 A3037 RMK A01 T01170004  RH  046%=      5-min Rain = 0
KFL1 211112Z 05008KT 12/00 A3037 RMK A01 T01160003  RH  046%=      5-min Rain = 0
KFL1 211113Z 05007KT 12/00 A3037 RMK A01 T01160004  RH  046%=      5-min Rain = 0
KFL1 211114Z 05007KT 12/00 A3037 RMK A01 T01150004  RH  047%=      5-min Rain = 0
KFL1 211115Z 05007KT 12/01 A3037 RMK A01 T01160007  RH  047%=      5-min Rain = 0
KFL1 211116Z 06007KT 11/01 A3037 RMK A01 T01140005  RH  047%=      5-min Rain = 0
KFL1 211117Z 05009KT 11/01 A3037 RMK A01 T01140005  RH  047%=      5-min Rain = 0
KFL1 211118Z 05009KT 11/00 A3037 RMK A01 T01130003  RH  047%=      5-min Rain = 0
KFL1 211119Z 05008KT 12/00 A3037 RMK A01 T01150004  RH  046%=      5-min Rain = 0
KFL1 211120Z 05008KT 12/00 A3037 RMK A01 T01150004  RH  046%=      5-min Rain = 0
KFL1 211121Z 05008KT 12/00 A3037 RMK A01 T01150004  RH  046%=      5-min Rain = 0
KFL1 211122Z 06008KT 12/01 A3037 RMK A01 T01150005  RH  047%=      5-min Rain = 0
KFL1 211123Z 06008KT 11/01 A3037 RMK A01 T01140005  RH  047%=      5-min Rain = 0
KFL1 211124Z 05006KT 11/01 A3037 RMK A01 T01140005  RH  047%=      5-min Rain = 0
KFL1 211125Z 06007KT 11/01 A3037 RMK A01 T01140005  RH  047%=      5-min Rain = 0
KFL1 211126Z 05007KT 11/00 A3037 RMK A01 T01130004  RH  047%=      5-min Rain = 0
KFL1 211127Z 06007KT 11/01 A3037 RMK A01 T01140005  RH  047%=      5-min Rain = 0
KFL1 211128Z 05007KT 11/00 A3037 RMK A01 T01120004  RH  047%=      5-min Rain = 0
KFL1 211129Z 05007KT 11/01 A3037 RMK A01 T01140005  RH  047%=      5-min Rain = 0
KFL1 211130Z 05008KT 11/00 A3037 RMK A01 T01120004  RH  047%=      5-min Rain = 0
KFL1 211131Z 05009KT 11/01 A3037 RMK A01 T01140006  RH  047%=      5-min Rain = 0
KFL1 211132Z 04009KT 11/01 A3037 RMK A01 T01130005  RH  047%=      5-min Rain = 0
KFL1 211133Z 04009KT 11/00 A3037 RMK A01 T01120004  RH  047%=      5-min Rain = 0
KFL1 211134Z 04009KT 11/01 A3037 RMK A01 T01120005  RH  047%=      5-min Rain = 0
KFL1 211135Z 04009KT 11/00 A3037 RMK A01 T01120004  RH  047%=      5-min Rain = 0
KFL1 211136Z 04010KT 11/01 A3037 RMK A01 T01130005  RH  047%=      5-min Rain = 0
KFL1 211137Z 04008KT 11/01 A3037 RMK A01 T01140005  RH  047%=      5-min Rain = 0
KFL1 211138Z 04008KT 11/00 A3037 RMK A01 T01130004  RH  047%=      5-min Rain = 0
KFL1 211139Z 04008KT 12/01 A3037 RMK A01 T01150005  RH  047%=      5-min Rain = 0
KFL1 211140Z 04008KT 12/01 A3037 RMK A01 T01160007  RH  047%=      5-min Rain = 0
KFL1 211141Z 04008KT 11/01 A3037 RMK A01 T01140007  RH  048%=      5-min Rain = 0
KFL1 211142Z 04008KT 11/01 A3037 RMK A01 T01130007  RH  048%=      5-min Rain = 0
KFL1 211143Z 05008KT 11/01 A3038 RMK A01 T01120007  RH  048%=      5-min Rain = 0
KFL1 211144Z 05009KT 11/01 A3038 RMK A01 T01110006  RH  048%=      5-min Rain = 0
KFL1 211145Z 04008KT 11/01 A3038 RMK A01 T01100006  RH  049%=      5-min Rain = 0
KFL1 211146Z 04009KT 11/01 A3038 RMK A01 T01110006  RH  048%=      5-min Rain = 0
KFL1 211147Z 04009KT 11/01 A3038 RMK A01 T01120006  RH  048%=      5-min Rain = 0
KFL1 211148Z 04008KT 11/01 A3038 RMK A01 T01120005  RH  048%=      5-min Rain = 0
KFL1 211149Z 04009KT 11/01 A3038 RMK A01 T01140005  RH  047%=      5-min Rain = 0
KFL1 211150Z 04010KT 12/00 A3038 RMK A01 T01150004  RH  046%=      5-min Rain = 0
KFL1 211151Z 04010KT 12/00 A3038 RMK A01 T01180004  RH  045%=      5-min Rain = 0
KFL1 211152Z 04009KT 12/00 A3038 RMK A01 T01190003  RH  045%=      5-min Rain = 0
KFL1 211153Z 04009KT 12/00 A3038 RMK A01 T01210003  RH  044%=      5-min Rain = 0
KFL1 211154Z 04008KT 12/00 A3038 RMK A01 T01220004  RH  044%=      5-min Rain = 0
KFL1 211155Z 04008KT 12/00 A3038 RMK A01 T01220004  RH  044%=      5-min Rain = 0
KFL1 211156Z 04007KT 12/01 A3038 RMK A01 T01220005  RH  045%=      5-min Rain = 0
KFL1 211157Z 04009KT 12/01 A3038 RMK A01 T01210005  RH  045%=      5-min Rain = 0
KFL1 211158Z 04008KT 12/01 A3038 RMK A01 T01210006  RH  045%=      5-min Rain = 0
KFL1 211159Z 04009KT 12/01 A3038 RMK A01 T01200005  RH  045%=      5-min Rain = 0
KFL1 211200Z 04008KT 12/01 A3038 RMK A01 T01190005  RH  046%=      5-min Rain = 0
KFL1 211201Z 04008KT 12/01 A3038 RMK A01 T01180005  RH  046%=      5-min Rain = 0
KFL1 211202Z 04009KT 12/01 A3038 RMK A01 T01170005  RH  046%=      5-min Rain = 0
KFL1 211203Z 04009KT 12/01 A3038 RMK A01 T01160005  RH  047%=      5-min Rain = 0
KFL1 211204Z 04009KT 12/01 A3038 RMK A01 T01160006  RH  047%=      5-min Rain = 0
KFL1 211205Z 04008KT 12/01 A3038 RMK A01 T01160006  RH  047%=      5-min Rain = 0
KFL1 211206Z 04009KT 12/01 A3038 RMK A01 T01160006  RH  047%=      5-min Rain = 0
KFL1 211207Z 04008KT 12/00 A3038 RMK A01 T01150004  RH  046%=      5-min Rain = 0
KFL1 211208Z 04009KT 12/01 A3038 RMK A01 T01160005  RH  046%=      5-min Rain = 0
KFL1 211209Z 04008KT 12/01 A3038 RMK A01 T01170006  RH  046%=      5-min Rain = 0
KFL1 211210Z 04009KT 12/01 A3038 RMK A01 T01160006  RH  047%=      5-min Rain = 0
KFL1 211211Z 04009KT 12/01 A3038 RMK A01 T01160006  RH  047%=      5-min Rain = 0
KFL1 211212Z 04009KT 12/01 A3038 RMK A01 T01150005  RH  047%=      5-min Rain = 0
KFL1 211213Z 04008KT 12/01 A3038 RMK A01 T01150005  RH  047%=      5-min Rain = 0
KFL1 211214Z 04008KT 12/01 A3038 RMK A01 T01160006  RH  047%=      5-min Rain = 0
KFL1 211215Z 04007KT 12/01 A3038 RMK A01 T01160006  RH  047%=      5-min Rain = 0
KFL1 211216Z 04009KT 12/01 A3038 RMK A01 T01150006  RH  047%=      5-min Rain = 0
KFL1 211217Z 04009KT 12/01 A3038 RMK A01 T01150006  RH  047%=      5-min Rain = 0
KFL1 211218Z 04008KT 11/01 A3038 RMK A01 T01140006  RH  047%=      5-min Rain = 0
KFL1 211219Z 04008KT 11/01 A3038 RMK A01 T01140006  RH  048%=      5-min Rain = 0
KFL1 211220Z 04008KT 11/01 A3038 RMK A01 T01120005  RH  048%=      5-min Rain = 0
KFL1 211221Z 04008KT 11/01 A3038 RMK A01 T01130007  RH  048%=      5-min Rain = 0
KFL1 211222Z 04008KT 11/01 A3038 RMK A01 T01120007  RH  048%=      5-min Rain = 0
KFL1 211223Z 04008KT 11/01 A3038 RMK A01 T01110007  RH  049%=      5-min Rain = 0
KFL1 211224Z 04009KT 11/01 A3038 RMK A01 T01100006  RH  049%=      5-min Rain = 0
KFL1 211225Z 04009KT 11/01 A3038 RMK A01 T01100006  RH  049%=      5-min Rain = 0
KFL1 211226Z 04009KT 11/01 A3038 RMK A01 T01100006  RH  049%=      5-min Rain = 0
KFL1 211227Z 03009KT 11/01 A3038 RMK A01 T01100006  RH  048%=      5-min Rain = 0
KFL1 211228Z 04009KT 11/01 A3038 RMK A01 T01100006  RH  048%=      5-min Rain = 0
KFL1 211229Z 04009KT 11/01 A3038 RMK A01 T01100006  RH  049%=      5-min Rain = 0
KFL1 211230Z 03009KT 11/01 A3038 RMK A01 T01100006  RH  049%=      5-min Rain = 0
KFL1 211231Z 04009KT 11/01 A3038 RMK A01 T01110006  RH  049%=      5-min Rain = 0
KFL1 211232Z 03009KT 11/01 A3038 RMK A01 T01120006  RH  048%=      5-min Rain = 0
KFL1 211233Z 04009KT 11/01 A3038 RMK A01 T01130005  RH  047%=      5-min Rain = 0
KFL1 211234Z 04008KT 11/01 A3038 RMK A01 T01140005  RH  047%=      5-min Rain = 0
KFL1 211235Z 04009KT 11/00 A3038 RMK A01 T01140004  RH  047%=      5-min Rain = 0
KFL1 211236Z 03009KT 12/00 A3038 RMK A01 T01150004  RH  046%=      5-min Rain = 0
KFL1 211237Z 03009KT 12/00 A3038 RMK A01 T01170004  RH  046%=      5-min Rain = 0
KFL1 211238Z 03009KT 12/00 A3038 RMK A01 T01180002  RH  045%=      5-min Rain = 0
KFL1 211239Z 03009KT 12/00 A3038 RMK A01 T01210002  RH  044%=      5-min Rain = 0
KFL1 211240Z 03009KT 12/00 A3038 RMK A01 T01230001  RH  043%=      5-min Rain = 0
KFL1 211241Z 04008KT 12/00 A3038 RMK A01 T012400-0  RH  042%=      5-min Rain = 0
KFL1 211242Z 03008KT 13/00 A3038 RMK A01 T012500-0  RH  042%=      5-min Rain = 0
KFL1 211243Z 03007KT 13/M00 A3039 RMK A01 T01251001  RH  042%=      5-min Rain = 0
KFL1 211244Z 03006KT 13/00 A3039 RMK A01 T01270002  RH  042%=      5-min Rain = 0
KFL1 211245Z 03007KT 12/00 A3039 RMK A01 T01240004  RH  044%=      5-min Rain = 0
KFL1 211246Z 04007KT 12/01 A3039 RMK A01 T01210006  RH  045%=      5-min Rain = 0
KFL1 211247Z 03007KT 12/01 A3039 RMK A01 T01160006  RH  047%=      5-min Rain = 0
KFL1 211248Z 04006KT 12/01 A3039 RMK A01 T01150007  RH  048%=      5-min Rain = 0
KFL1 211249Z 03007KT 11/01 A3039 RMK A01 T01120006  RH  048%=      5-min Rain = 0
KFL1 211250Z 03007KT 11/01 A3039 RMK A01 T01120005  RH  048%=      5-min Rain = 0
KFL1 211251Z 03007KT 11/01 A3039 RMK A01 T01120006  RH  048%=      5-min Rain = 0
KFL1 211252Z 03007KT 11/00 A3039 RMK A01 T01120003  RH  047%=      5-min Rain = 0
KFL1 211253Z 03008KT 12/00 A3039 RMK A01 T01150003  RH  046%=      5-min Rain = 0
KFL1 211254Z 03008KT 12/00 A3039 RMK A01 T01170003  RH  045%=      5-min Rain = 0
KFL1 211255Z 03007KT 12/00 A3039 RMK A01 T01180003  RH  045%=      5-min Rain = 0
KFL1 211256Z 03007KT 12/00 A3039 RMK A01 T01190002  RH  045%=      5-min Rain = 0
KFL1 211257Z 03007KT 12/00 A3039 RMK A01 T01190003  RH  045%=      5-min Rain = 0
KFL1 211258Z 03008KT 12/00 A3039 RMK A01 T01210004  RH  045%=      5-min Rain = 0
KFL1 211259Z 03009KT 12/00 A3039 RMK A01 T01200003  RH  045%=      5-min Rain = 0
KFL1 211300Z 03008KT 12/00 A3039 RMK A01 T01200002  RH  044%=      5-min Rain = 0
KFL1 211301Z 03009KT 12/00 A3039 RMK A01 T01220001  RH  044%=      5-min Rain = 0
KFL1 211302Z 03008KT 12/00 A3039 RMK A01 T01230002  RH  043%=      5-min Rain = 0
KFL1 211303Z 03008KT 12/00 A3039 RMK A01 T01240001  RH  043%=      5-min Rain = 0
KFL1 211304Z 03008KT 12/00 A3039 RMK A01 T012300-0  RH  043%=      5-min Rain = 0
KFL1 211305Z 03007KT 13/00 A3039 RMK A01 T01250002  RH  043%=      5-min Rain = 0
KFL1 211306Z 03007KT 13/00 A3039 RMK A01 T01250002  RH  043%=      5-min Rain = 0
KFL1 211307Z 03007KT 12/00 A3039 RMK A01 T01240003  RH  043%=      5-min Rain = 0
KFL1 211308Z 03007KT 12/00 A3039 RMK A01 T01230003  RH  044%=      5-min Rain = 0
KFL1 211309Z 03007KT 12/00 A3039 RMK A01 T01220004  RH  044%=      5-min Rain = 0
KFL1 211310Z 03006KT 12/00 A3039 RMK A01 T01200004  RH  045%=      5-min Rain = 0
KFL1 211311Z 03007KT 12/01 A3039 RMK A01 T01190006  RH  046%=      5-min Rain = 0
KFL1 211312Z 03007KT 12/01 A3039 RMK A01 T01180006  RH  046%=      5-min Rain = 0
KFL1 211313Z 03007KT 12/01 A3039 RMK A01 T01170006  RH  046%=      5-min Rain = 0
KFL1 211314Z 03007KT 12/01 A3039 RMK A01 T01160006  RH  047%=      5-min Rain = 0
KFL1 211315Z 03008KT 12/01 A3039 RMK A01 T01160007  RH  047%=      5-min Rain = 0
KFL1 211316Z 03007KT 11/01 A3039 RMK A01 T01140006  RH  047%=      5-min Rain = 0
KFL1 211317Z 03008KT 12/01 A3039 RMK A01 T01150007  RH  047%=      5-min Rain = 0
KFL1 211318Z 03008KT 11/01 A3039 RMK A01 T01140006  RH  047%=      5-min Rain = 0
KFL1 211319Z 04007KT 12/01 A3039 RMK A01 T01150006  RH  047%=      5-min Rain = 0
KFL1 211320Z 03008KT 12/01 A3039 RMK A01 T01150005  RH  047%=      5-min Rain = 0
KFL1 211321Z 04007KT 12/01 A3039 RMK A01 T01150005  RH  047%=      5-min Rain = 0
KFL1 211322Z 04007KT 12/01 A3039 RMK A01 T01160007  RH  047%=      5-min Rain = 0
KFL1 211323Z 03006KT 12/01 A3039 RMK A01 T01150007  RH  047%=      5-min Rain = 0
KFL1 211324Z 04007KT 12/01 A304 RMK A01 T01170010  RH  048%=      5-min Rain = 0
KFL1 211325Z 04006KT 12/01 A304 RMK A01 T01150010  RH  048%=      5-min Rain = 0
KFL1 211326Z 04006KT 11/01 A304 RMK A01 T01130011  RH  049%=      5-min Rain = 0
KFL1 211327Z 04007KT 11/01 A304 RMK A01 T01120010  RH  050%=      5-min Rain = 0
KFL1 211328Z 04007KT 11/01 A304 RMK A01 T01110010  RH  050%=      5-min Rain = 0
KFL1 211329Z 04007KT 11/01 A304 RMK A01 T01110012  RH  050%=      5-min Rain = 0
KFL1 211330Z 04007KT 11/01 A304 RMK A01 T01100012  RH  051%=      5-min Rain = 0
KFL1 211331Z 04007KT 11/01 A304 RMK A01 T01080011  RH  051%=      5-min Rain = 0
KFL1 211332Z 04007KT 11/01 A304 RMK A01 T01080012  RH  051%=      5-min Rain = 0
KFL1 211333Z 04007KT 11/01 A304 RMK A01 T01070011  RH  051%=      5-min Rain = 0
KFL1 211334Z 04007KT 11/01 A304 RMK A01 T01080012  RH  052%=      5-min Rain = 0
KFL1 211335Z 04007KT 11/01 A304 RMK A01 T01080013  RH  052%=      5-min Rain = 0
KFL1 211336Z 04008KT 11/01 A304 RMK A01 T01070012  RH  052%=      5-min Rain = 0
KFL1 211337Z 04008KT 11/01 A304 RMK A01 T01060012  RH  052%=      5-min Rain = 0
KFL1 211338Z 04008KT 11/01 A304 RMK A01 T01060012  RH  052%=      5-min Rain = 0
KFL1 211339Z 04008KT 11/01 A304 RMK A01 T01050011  RH  052%=      5-min Rain = 0
KFL1 211340Z 04008KT 11/01 A304 RMK A01 T01060011  RH  052%=      5-min Rain = 0
KFL1 211341Z 04008KT 11/01 A304 RMK A01 T01070011  RH  052%=      5-min Rain = 0
KFL1 211342Z 03008KT 11/01 A304 RMK A01 T01070010  RH  051%=      5-min Rain = 0
KFL1 211343Z 03008KT 11/01 A304 RMK A01 T01090011  RH  051%=      5-min Rain = 0
KFL1 211344Z 03008KT 11/01 A3041 RMK A01 T01080010  RH  051%=      5-min Rain = 0
KFL1 211345Z 04008KT 11/01 A3041 RMK A01 T01100012  RH  051%=      5-min Rain = 0
KFL1 211346Z 04008KT 11/01 A3041 RMK A01 T01100011  RH  050%=      5-min Rain = 0
KFL1 211347Z 04007KT 11/01 A3041 RMK A01 T01090010  RH  050%=      5-min Rain = 0
KFL1 211348Z 03007KT 11/01 A3041 RMK A01 T01110011  RH  050%=      5-min Rain = 0
KFL1 211349Z 04007KT 11/01 A3041 RMK A01 T01120013  RH  051%=      5-min Rain = 0
KFL1 211350Z 04008KT 11/01 A3041 RMK A01 T01110012  RH  051%=      5-min Rain = 0
KFL1 211351Z 04007KT 11/01 A3041 RMK A01 T01110013  RH  051%=      5-min Rain = 0
KFL1 211352Z 04007KT 11/01 A3041 RMK A01 T01120014  RH  051%=      5-min Rain = 0
KFL1 211353Z 04006KT 11/01 A3041 RMK A01 T01110014  RH  051%=      5-min Rain = 0
KFL1 211354Z 04007KT 11/02 A3041 RMK A01 T01110015  RH  052%=      5-min Rain = 0
KFL1 211355Z 04007KT 11/02 A3041 RMK A01 T01090015  RH  052%=      5-min Rain = 0
KFL1 211356Z 05007KT 11/02 A3041 RMK A01 T01080015  RH  053%=      5-min Rain = 0
KFL1 211357Z 04007KT 11/02 A3041 RMK A01 T01080016  RH  053%=      5-min Rain = 0
KFL1 211358Z 04007KT 11/02 A3041 RMK A01 T01080015  RH  053%=      5-min Rain = 0
KFL1 211359Z 04007KT 11/01 A3041 RMK A01 T01070014  RH  053%=      5-min Rain = 0
KFL1 211400Z 04008KT 11/02 A3041 RMK A01 T01080016  RH  053%=      5-min Rain = 0
KFL1 211401Z 04007KT 11/02 A3041 RMK A01 T01060015  RH  053%=      5-min Rain = 0
KFL1 211402Z 04008KT 11/01 A3041 RMK A01 T01060014  RH  053%=      5-min Rain = 0
KFL1 211403Z 04008KT 11/02 A3041 RMK A01 T01070015  RH  053%=      5-min Rain = 0
KFL1 211404Z 05007KT 11/01 A3041 RMK A01 T01060013  RH  053%=      5-min Rain = 0
KFL1 211405Z 05006KT 11/01 A3041 RMK A01 T01070014  RH  053%=      5-min Rain = 0
KFL1 211406Z 04006KT 11/02 A3041 RMK A01 T01090015  RH  052%=      5-min Rain = 0
KFL1 211407Z 03005KT 11/02 A3041 RMK A01 T01100017  RH  052%=      5-min Rain = 0
KFL1 211408Z 04005KT 11/01 A3041 RMK A01 T01090014  RH  052%=      5-min Rain = 0
KFL1 211409Z 05004KT 11/02 A3041 RMK A01 T01120017  RH  052%=      5-min Rain = 0
KFL1 211410Z 04007KT 11/02 A3041 RMK A01 T01130018  RH  052%=      5-min Rain = 0
KFL1 211411Z 04007KT 12/02 A3042 RMK A01 T01150018  RH  051%=      5-min Rain = 0
KFL1 211412Z 05006KT 12/02 A3042 RMK A01 T01180018  RH  050%=      5-min Rain = 0
KFL1 211413Z 05006KT 12/02 A3042 RMK A01 T01180019  RH  051%=      5-min Rain = 0
KFL1 211414Z 05008KT 12/02 A3042 RMK A01 T01190019  RH  050%=      5-min Rain = 0
KFL1 211415Z 04008KT 12/02 A3042 RMK A01 T01200019  RH  050%=      5-min Rain = 0
KFL1 211416Z 03008KT 12/02 A3042 RMK A01 T01190017  RH  049%=      5-min Rain = 0
KFL1 211417Z 04008KT 12/02 A3042 RMK A01 T01180015  RH  049%=      5-min Rain = 0
KFL1 211418Z 05006KT 12/02 A3042 RMK A01 T01220019  RH  050%=      5-min Rain = 0
KFL1 211419Z 04005KT 12/02 A3042 RMK A01 T01230018  RH  048%=      5-min Rain = 0
KFL1 211420Z 05004KT 12/02 A3042 RMK A01 T01230017  RH  048%=      5-min Rain = 0
KFL1 211421Z 04005KT 13/02 A3042 RMK A01 T01260019  RH  048%=      5-min Rain = 0
KFL1 211422Z 04004KT 13/02 A3042 RMK A01 T01270021  RH  048%=      5-min Rain = 0
KFL1 211423Z 05006KT 13/02 A3042 RMK A01 T01290022  RH  048%=      5-min Rain = 0
KFL1 211424Z 04006KT 13/02 A3042 RMK A01 T01290023  RH  049%=      5-min Rain = 0
KFL1 211425Z 05006KT 13/02 A3042 RMK A01 T01280024  RH  049%=      5-min Rain = 0
KFL1 211426Z 05005KT 13/02 A3042 RMK A01 T01270024  RH  050%=      5-min Rain = 0
KFL1 211427Z 04005KT 13/03 A3042 RMK A01 T01260025  RH  050%=      5-min Rain = 0
KFL1 211428Z 04006KT 13/03 A3042 RMK A01 T01260026  RH  050%=      5-min Rain = 0
KFL1 211429Z 04007KT 13/03 A3042 RMK A01 T01250025  RH  050%=      5-min Rain = 0
KFL1 211430Z 03007KT 13/02 A3042 RMK A01 T01260024  RH  050%=      5-min Rain = 0
KFL1 211431Z 03006KT 13/02 A3042 RMK A01 T01280024  RH  049%=      5-min Rain = 0
KFL1 211432Z 03007KT 13/02 A3042 RMK A01 T01290024  RH  049%=      5-min Rain = 0
KFL1 211433Z 04006KT 13/03 A3042 RMK A01 T01330026  RH  048%=      5-min Rain = 0
KFL1 211434Z 03005KT 13/03 A3042 RMK A01 T01340027  RH  048%=      5-min Rain = 0
KFL1 211435Z 03005KT 14/03 A3042 RMK A01 T01360027  RH  048%=      5-min Rain = 0
KFL1 211436Z 03005KT 14/03 A3042 RMK A01 T01380026  RH  047%=      5-min Rain = 0
KFL1 211437Z 03004KT 14/03 A3042 RMK A01 T01410027  RH  046%=      5-min Rain = 0
KFL1 211438Z 03004KT 15/03 A3042 RMK A01 T01450029  RH  045%=      5-min Rain = 0
KFL1 211439Z 04003KT 15/03 A3042 RMK A01 T01480030  RH  045%=      5-min Rain = 0
KFL1 211440Z 05003KT 15/04 A3042 RMK A01 T01510036  RH  046%=      5-min Rain = 0
KFL1 211441Z 05003KT 15/04 A3042 RMK A01 T01540043  RH  047%=      5-min Rain = 0
KFL1 211442Z 04004KT 16/05 A3042 RMK A01 T01570046  RH  047%=      5-min Rain = 0
KFL1 211443Z 04004KT 16/04 A3042 RMK A01 T01600041  RH  045%=      5-min Rain = 0
KFL1 211444Z 03003KT 16/04 A3042 RMK A01 T01610037  RH  044%=      5-min Rain = 0
KFL1 211445Z 04003KT 16/04 A3042 RMK A01 T01620039  RH  044%=      5-min Rain = 0
KFL1 211446Z 04003KT 16/04 A3042 RMK A01 T01630035  RH  042%=      5-min Rain = 0
KFL1 211447Z 05003KT 17/04 A3042 RMK A01 T01670041  RH  043%=      5-min Rain = 0
KFL1 211448Z 05003KT 17/04 A3042 RMK A01 T01700044  RH  043%=      5-min Rain = 0
KFL1 211449Z 05004KT 17/05 A3042 RMK A01 T01730047  RH  043%=      5-min Rain = 0
KFL1 211450Z 06002KT 17/05 A3042 RMK A01 T01730045  RH  043%=      5-min Rain = 0
KFL1 211451Z 06003KT 18/05 A3042 RMK A01 T01760047  RH  042%=      5-min Rain = 0
KFL1 211452Z 05003KT 18/05 A3042 RMK A01 T01770049  RH  043%=      5-min Rain = 0
KFL1 211453Z 05002KT 18/05 A3042 RMK A01 T01780048  RH  042%=      5-min Rain = 0
KFL1 211454Z 07002KT 18/05 A3042 RMK A01 T01790046  RH  041%=      5-min Rain = 0
KFL1 211455Z 05003KT 18/05 A3042 RMK A01 T01800047  RH  042%=      5-min Rain = 0
KFL1 211456Z 05003KT 18/05 A3042 RMK A01 T01810047  RH  041%=      5-min Rain = 0
KFL1 211457Z 06002KT 18/05 A3042 RMK A01 T01820047  RH  041%=      5-min Rain = 0
KFL1 211458Z 06003KT 18/04 A3042 RMK A01 T01820042  RH  039%=      5-min Rain = 0
KFL1 211459Z 06002KT 18/04 A3042 RMK A01 T01830042  RH  039%=      5-min Rain = 0
KFL1 211500Z 06002KT 18/04 A3042 RMK A01 T01820043  RH  040%=      5-min Rain = 0
KFL1 211501Z 06002KT 18/05 A3042 RMK A01 T01830045  RH  040%=      5-min Rain = 0
KFL1 211502Z 05002KT 18/04 A3042 RMK A01 T01830041  RH  039%=      5-min Rain = 0
KFL1 211503Z 05002KT 18/04 A3042 RMK A01 T01830040  RH  039%=      5-min Rain = 0
KFL1 211504Z 06002KT 18/04 A3042 RMK A01 T01840038  RH  038%=      5-min Rain = 0
KFL1 211505Z 06001KT 19/04 A3042 RMK A01 T01860043  RH  039%=      5-min Rain = 0
KFL1 211506Z 07001KT 19/04 A3042 RMK A01 T01860038  RH  038%=      5-min Rain = 0
KFL1 211507Z 05003KT 19/04 A3042 RMK A01 T01870039  RH  037%=      5-min Rain = 0
KFL1 211508Z 06003KT 19/04 A3042 RMK A01 T01860041  RH  038%=      5-min Rain = 0
KFL1 211509Z 06003KT 19/05 A3042 RMK A01 T01880045  RH  039%=      5-min Rain = 0
KFL1 211510Z 06003KT 19/04 A3042 RMK A01 T01880041  RH  038%=      5-min Rain = 0
KFL1 211511Z 07002KT 19/04 A3042 RMK A01 T01880041  RH  038%=      5-min Rain = 0
KFL1 211512Z 07001KT 19/04 A3042 RMK A01 T01890039  RH  037%=      5-min Rain = 0
KFL1 211513Z 06003KT 19/05 A3042 RMK A01 T01890048  RH  039%=      5-min Rain = 0
KFL1 211514Z 06003KT 19/05 A3042 RMK A01 T01910046  RH  038%=      5-min Rain = 0
KFL1 211515Z 06002KT 19/04 A3042 RMK A01 T01920042  RH  037%=      5-min Rain = 0
KFL1 211516Z 06002KT 19/02 A3042 RMK A01 T01920023  RH  032%=      5-min Rain = 0
KFL1 211517Z 07003KT 19/03 A3042 RMK A01 T01920026  RH  033%=      5-min Rain = 0
KFL1 211518Z 07003KT 19/03 A3042 RMK A01 T01920027  RH  033%=      5-min Rain = 0
KFL1 211519Z 07002KT 19/02 A3042 RMK A01 T01930019  RH  031%=      5-min Rain = 0
KFL1 211520Z 07003KT 19/03 A3042 RMK A01 T01930028  RH  033%=      5-min Rain = 0
KFL1 211521Z 08003KT 19/03 A3042 RMK A01 T01940031  RH  034%=      5-min Rain = 0
KFL1 211522Z 07002KT 19/03 A3042 RMK A01 T01930034  RH  035%=      5-min Rain = 0
KFL1 211523Z 06003KT 20/03 A3042 RMK A01 T01950034  RH  034%=      5-min Rain = 0
KFL1 211524Z 08003KT 20/04 A3042 RMK A01 T01960036  RH  035%=      5-min Rain = 0
KFL1 211525Z 09004KT 20/04 A3042 RMK A01 T01970039  RH  035%=      5-min Rain = 0
KFL1 211526Z 09004KT 20/05 A3042 RMK A01 T02000050  RH  037%=      5-min Rain = 0
KFL1 211527Z 09004KT 20/04 A3043 RMK A01 T02010037  RH  034%=      5-min Rain = 0
KFL1 211528Z 10005KT 20/04 A3043 RMK A01 T02020036  RH  033%=      5-min Rain = 0
KFL1 211529Z 09006KT 20/03 A3043 RMK A01 T02030032  RH  032%=      5-min Rain = 0
KFL1 211530Z 09007KT 20/03 A3043 RMK A01 T02030033  RH  032%=      5-min Rain = 0
KFL1 211531Z 09006KT 20/03 A3043 RMK A01 T02040025  RH  031%=      5-min Rain = 0
KFL1 211532Z 11004KT 20/02 A3043 RMK A01 T02020016  RH  029%=      5-min Rain = 0
KFL1 211533Z 10005KT 20/02 A3043 RMK A01 T02010022  RH  031%=      5-min Rain = 0
KFL1 211534Z 11005KT 20/03 A3043 RMK A01 T02010031  RH  033%=      5-min Rain = 0
KFL1 211535Z 10006KT 20/03 A3043 RMK A01 T02030026  RH  031%=      5-min Rain = 0
KFL1 211536Z 09006KT 20/04 A3043 RMK A01 T02030037  RH  034%=      5-min Rain = 0
KFL1 211537Z 09006KT 21/02 A3043 RMK A01 T02050022  RH  030%=      5-min Rain = 0
KFL1 211538Z 10005KT 21/03 A3043 RMK A01 T02070026  RH  030%=      5-min Rain = 0
KFL1 211539Z 12003KT 21/03 A3043 RMK A01 T02060027  RH  030%=      5-min Rain = 0
KFL1 211540Z 11004KT 21/03 A3043 RMK A01 T02070025  RH  030%=      5-min Rain = 0
KFL1 211541Z 10003KT 21/02 A3043 RMK A01 T02070020  RH  029%=      5-min Rain = 0
KFL1 211542Z 09005KT 21/02 A3043 RMK A01 T02070023  RH  030%=      5-min Rain = 0
KFL1 211543Z 08007KT 21/02 A3043 RMK A01 T02070024  RH  030%=      5-min Rain = 0
KFL1 211544Z 08006KT 21/01 A3043 RMK A01 T02060008  RH  027%=      5-min Rain = 0
KFL1 211545Z 09006KT 21/02 A3043 RMK A01 T02060018  RH  029%=      5-min Rain = 0
KFL1 211546Z 09007KT 21/03 A3043 RMK A01 T02050031  RH  031%=      5-min Rain = 0
KFL1 211547Z 09005KT 21/03 A3043 RMK A01 T02070025  RH  030%=      5-min Rain = 0
KFL1 211548Z 10005KT 21/02 A3043 RMK A01 T02090019  RH  028%=      5-min Rain = 0
KFL1 211549Z 09006KT 21/02 A3043 RMK A01 T02090017  RH  028%=      5-min Rain = 0
KFL1 211550Z 11004KT 21/01 A3043 RMK A01 T02070013  RH  027%=      5-min Rain = 0
KFL1 211551Z 10006KT 21/02 A3043 RMK A01 T02070017  RH  028%=      5-min Rain = 0
KFL1 211552Z 09005KT 21/03 A3043 RMK A01 T02080025  RH  030%=      5-min Rain = 0
KFL1 211553Z 09005KT 21/03 A3043 RMK A01 T02090032  RH  031%=      5-min Rain = 0
KFL1 211554Z 09003KT 21/03 A3044 RMK A01 T02110032  RH  031%=      5-min Rain = 0
KFL1 211555Z 12002KT 21/02 A3044 RMK A01 T02130022  RH  028%=      5-min Rain = 0
KFL1 211556Z 13004KT 21/01 A3044 RMK A01 T02120012  RH  026%=      5-min Rain = 0
KFL1 211557Z 14003KT 21/01 A3044 RMK A01 T02090013  RH  027%=      5-min Rain = 0
KFL1 211558Z 12002KT 21/02 A3044 RMK A01 T02070017  RH  028%=      5-min Rain = 0
KFL1 211559Z 11005KT 21/02 A3044 RMK A01 T02080020  RH  029%=      5-min Rain = 0
KFL1 211600Z 13004KT 21/01 A3044 RMK A01 T02080009  RH  027%=      5-min Rain = 0
KFL1 211601Z 11005KT 21/02 A3044 RMK A01 T02080020  RH  029%=      5-min Rain = 0
KFL1 211602Z 11006KT 21/02 A3044 RMK A01 T02070020  RH  029%=      5-min Rain = 0
KFL1 211603Z 12005KT 21/02 A3044 RMK A01 T02070024  RH  030%=      5-min Rain = 0
KFL1 211604Z 12005KT 21/02 A3044 RMK A01 T02100019  RH  028%=      5-min Rain = 0
KFL1 211605Z 12003KT 21/02 A3044 RMK A01 T02090018  RH  028%=      5-min Rain = 0
KFL1 211606Z 10005KT 21/02 A3044 RMK A01 T02120024  RH  029%=      5-min Rain = 0
KFL1 211607Z 12005KT 21/02 A3044 RMK A01 T02110017  RH  028%=      5-min Rain = 0
KFL1 211608Z 10004KT 21/02 A3044 RMK A01 T02100016  RH  028%=      5-min Rain = 0
KFL1 211609Z 10004KT 21/02 A3044 RMK A01 T02090021  RH  029%=      5-min Rain = 0
KFL1 211610Z 10006KT 21/03 A3044 RMK A01 T02110026  RH  029%=      5-min Rain = 0
KFL1 211611Z 10006KT 21/03 A3044 RMK A01 T02110033  RH  031%=      5-min Rain = 0
KFL1 211612Z 10006KT 21/02 A3044 RMK A01 T02130023  RH  029%=      5-min Rain = 0
KFL1 211613Z 10007KT 21/03 A3044 RMK A01 T02130026  RH  029%=      5-min Rain = 0
KFL1 211614Z 10004KT 21/02 A3044 RMK A01 T02120019  RH  028%=      5-min Rain = 0
KFL1 211615Z 08004KT 21/03 A3044 RMK A01 T02120027  RH  029%=      5-min Rain = 0
KFL1 211616Z 08005KT 21/03 A3044 RMK A01 T02110028  RH  030%=      5-min Rain = 0
KFL1 211617Z 08006KT 21/02 A3044 RMK A01 T02120024  RH  029%=      5-min Rain = 0
KFL1 211618Z 08005KT 21/02 A3044 RMK A01 T02130021  RH  028%=      5-min Rain = 0
KFL1 211619Z 12003KT 21/03 A3044 RMK A01 T02120028  RH  030%=      5-min Rain = 0
KFL1 211620Z 12004KT 21/02 A3044 RMK A01 T02140019  RH  027%=      5-min Rain = 0
KFL1 211621Z 11004KT 21/02 A3044 RMK A01 T02140021  RH  028%=      5-min Rain = 0
KFL1 211622Z 13004KT 21/02 A3044 RMK A01 T02140017  RH  027%=      5-min Rain = 0
KFL1 211623Z 13003KT 21/02 A3044 RMK A01 T02120017  RH  028%=      5-min Rain = 0
KFL1 211624Z 12004KT 21/02 A3044 RMK A01 T02120017  RH  027%=      5-min Rain = 0
KFL1 211625Z 11003KT 21/02 A3044 RMK A01 T02120015  RH  027%=      5-min Rain = 0
KFL1 211626Z 10004KT 21/02 A3044 RMK A01 T02120020  RH  028%=      5-min Rain = 0
KFL1 211627Z 12004KT 21/02 A3044 RMK A01 T02130023  RH  029%=      5-min Rain = 0
KFL1 211628Z 11003KT 21/02 A3044 RMK A01 T02130018  RH  028%=      5-min Rain = 0
KFL1 211629Z 12004KT 21/02 A3044 RMK A01 T02130016  RH  027%=      5-min Rain = 0
KFL1 211630Z 11003KT 21/01 A3044 RMK A01 T02120014  RH  027%=      5-min Rain = 0
KFL1 211631Z 14004KT 21/02 A3044 RMK A01 T02110020  RH  028%=      5-min Rain = 0
KFL1 211632Z 13006KT 21/02 A3044 RMK A01 T02120019  RH  028%=      5-min Rain = 0
KFL1 211633Z 13004KT 21/03 A3044 RMK A01 T02140025  RH  029%=      5-min Rain = 0
KFL1 211634Z 13002KT 21/01 A3044 RMK A01 T02140014  RH  027%=      5-min Rain = 0
KFL1 211635Z 13003KT 21/02 A3044 RMK A01 T02140016  RH  027%=      5-min Rain = 0
KFL1 211636Z 08004KT 21/02 A3044 RMK A01 T02120017  RH  028%=      5-min Rain = 0
KFL1 211637Z 08004KT 21/03 A3044 RMK A01 T02120027  RH  030%=      5-min Rain = 0
KFL1 211638Z 09003KT 21/02 A3044 RMK A01 T02120021  RH  028%=      5-min Rain = 0
KFL1 211639Z 09005KT 21/03 A3044 RMK A01 T02120025  RH  029%=      5-min Rain = 0
KFL1 211640Z 08004KT 21/02 A3044 RMK A01 T02130023  RH  028%=      5-min Rain = 0
KFL1 211641Z 07003KT 22/02 A3044 RMK A01 T02150019  RH  027%=      5-min Rain = 0
KFL1 211642Z 11001KT 21/02 A3044 RMK A01 T02140018  RH  027%=      5-min Rain = 0
KFL1 211643Z 15004KT 21/03 A3044 RMK A01 T02140025  RH  029%=      5-min Rain = 0
KFL1 211644Z 16004KT 22/03 A3044 RMK A01 T02170032  RH  030%=      5-min Rain = 0
KFL1 211645Z 15004KT 22/03 A3044 RMK A01 T02200028  RH  028%=      5-min Rain = 0
KFL1 211646Z 17003KT 22/02 A3043 RMK A01 T02230024  RH  027%=      5-min Rain = 0
KFL1 211647Z 15002KT 22/02 A3043 RMK A01 T02230024  RH  027%=      5-min Rain = 0
KFL1 211648Z 13003KT 22/02 A3043 RMK A01 T02230022  RH  027%=      5-min Rain = 0
KFL1 211649Z 13005KT 22/03 A3043 RMK A01 T02230025  RH  027%=      5-min Rain = 0
KFL1 211650Z 15006KT 22/03 A3043 RMK A01 T02230027  RH  028%=      5-min Rain = 0
KFL1 211651Z 15007KT 22/02 A3043 RMK A01 T02210018  RH  026%=      5-min Rain = 0
KFL1 211652Z 12006KT 22/03 A3043 RMK A01 T02200028  RH  028%=      5-min Rain = 0
KFL1 211653Z 14004KT 22/02 A3043 RMK A01 T02210021  RH  027%=      5-min Rain = 0
KFL1 211654Z 13003KT 22/02 A3043 RMK A01 T02190019  RH  027%=      5-min Rain = 0
KFL1 211655Z 13003KT 22/02 A3043 RMK A01 T02170018  RH  027%=      5-min Rain = 0
KFL1 211656Z 13003KT 22/01 A3044 RMK A01 T02160012  RH  026%=      5-min Rain = 0
KFL1 211657Z 09001KT 21/02 A3043 RMK A01 T02130015  RH  027%=      5-min Rain = 0
KFL1 211658Z 12001KT 21/02 A3043 RMK A01 T02140020  RH  028%=      5-min Rain = 0
KFL1 211659Z 16003KT 22/03 A3044 RMK A01 T02150025  RH  029%=      5-min Rain = 0
KFL1 211700Z 17004KT 22/03 A3044 RMK A01 T02170031  RH  029%=      5-min Rain = 0
KFL1 211701Z 17003KT 22/03 A3044 RMK A01 T02180030  RH  029%=      5-min Rain = 0
KFL1 211702Z 16003KT 22/03 A3044 RMK A01 T02200029  RH  028%=      5-min Rain = 0
KFL1 211703Z 16003KT 22/03 A3044 RMK A01 T02210029  RH  028%=      5-min Rain = 0
KFL1 211704Z 17005KT 22/03 A3044 RMK A01 T02230032  RH  029%=      5-min Rain = 0
KFL1 211705Z 16003KT 23/02 A3044 RMK A01 T02250017  RH  025%=      5-min Rain = 0
KFL1 211706Z 18003KT 22/03 A3044 RMK A01 T02230029  RH  028%=      5-min Rain = 0
KFL1 211707Z 18004KT 22/02 A3044 RMK A01 T02230024  RH  027%=      5-min Rain = 0
KFL1 211708Z 17003KT 22/02 A3044 RMK A01 T02240024  RH  027%=      5-min Rain = 0
KFL1 211709Z 17004KT 23/02 A3044 RMK A01 T02250023  RH  027%=      5-min Rain = 0
KFL1 211710Z 18004KT 23/03 A3044 RMK A01 T02260026  RH  027%=      5-min Rain = 0
KFL1 211711Z 19004KT 23/02 A3044 RMK A01 T02260024  RH  026%=      5-min Rain = 0
KFL1 211712Z 20003KT 23/02 A3044 RMK A01 T02250019  RH  026%=      5-min Rain = 0
KFL1 211713Z 19004KT 23/02 A3044 RMK A01 T02250023  RH  026%=      5-min Rain = 0
KFL1 211714Z 17002KT 23/03 A3044 RMK A01 T02250031  RH  028%=      5-min Rain = 0
KFL1 211715Z 17002KT 23/03 A3044 RMK A01 T02270029  RH  027%=      5-min Rain = 0
KFL1 211716Z 20003KT 23/03 A3044 RMK A01 T02280025  RH  026%=      5-min Rain = 0
KFL1 211717Z 16003KT 23/03 A3044 RMK A01 T02270031  RH  028%=      5-min Rain = 0
KFL1 211718Z 19003KT 23/04 A3044 RMK A01 T02280036  RH  028%=      5-min Rain = 0
KFL1 211719Z 19002KT 23/03 A3043 RMK A01 T02300032  RH  027%=      5-min Rain = 0
KFL1 211720Z 20001KT 23/03 A3043 RMK A01 T02330029  RH  026%=      5-min Rain = 0
KFL1 211721Z 16001KT 23/03 A3043 RMK A01 T02320032  RH  027%=      5-min Rain = 0
KFL1 211722Z 16003KT 23/03 A3043 RMK A01 T02320031  RH  027%=      5-min Rain = 0
KFL1 211723Z 16002KT 23/02 A3043 RMK A01 T02330023  RH  025%=      5-min Rain = 0
KFL1 211724Z 19002KT 23/02 A3043 RMK A01 T02330021  RH  025%=      5-min Rain = 0
KFL1 211725Z 25001KT 23/03 A3043 RMK A01 T02320034  RH  027%=      5-min Rain = 0
KFL1 211726Z 18003KT 23/02 A3043 RMK A01 T02310024  RH  026%=      5-min Rain = 0
KFL1 211727Z 21003KT 23/03 A3043 RMK A01 T02310027  RH  026%=      5-min Rain = 0
KFL1 211728Z 22003KT 23/02 A3043 RMK A01 T02280024  RH  026%=      5-min Rain = 0
KFL1 211729Z 21001KT 23/02 A3043 RMK A01 T02260021  RH  026%=      5-min Rain = 0
KFL1 211730Z 16004KT 22/03 A3043 RMK A01 T02240028  RH  028%=      5-min Rain = 0
KFL1 211731Z 15005KT 22/03 A3043 RMK A01 T02220027  RH  028%=      5-min Rain = 0
KFL1 211732Z 16003KT 22/03 A3043 RMK A01 T02200033  RH  029%=      5-min Rain = 0
KFL1 211733Z 15002KT 22/04 A3043 RMK A01 T02180035  RH  030%=      5-min Rain = 0
KFL1 211734Z 11003KT 22/03 A3043 RMK A01 T02180033  RH  030%=      5-min Rain = 0
KFL1 211735Z 11005KT 22/02 A3043 RMK A01 T02160024  RH  028%=      5-min Rain = 0
KFL1 211736Z 12005KT 21/02 A3043 RMK A01 T02110021  RH  028%=      5-min Rain = 0
KFL1 211737Z 11005KT 21/03 A3043 RMK A01 T02120032  RH  031%=      5-min Rain = 0
KFL1 211738Z 12005KT 21/02 A3043 RMK A01 T02100023  RH  029%=      5-min Rain = 0
KFL1 211739Z 13006KT 21/03 A3043 RMK A01 T02090028  RH  030%=      5-min Rain = 0
KFL1 211740Z 13005KT 21/03 A3043 RMK A01 T02100026  RH  030%=      5-min Rain = 0
KFL1 211741Z 13003KT 21/03 A3043 RMK A01 T02110028  RH  030%=      5-min Rain = 0
KFL1 211742Z 11004KT 21/03 A3043 RMK A01 T02120028  RH  030%=      5-min Rain = 0
KFL1 211743Z 12004KT 21/03 A3043 RMK A01 T02130032  RH  031%=      5-min Rain = 0
KFL1 211744Z 11004KT 21/03 A3043 RMK A01 T02140027  RH  029%=      5-min Rain = 0
KFL1 211745Z 12003KT 21/02 A3043 RMK A01 T02130021  RH  028%=      5-min Rain = 0
KFL1 211746Z 10002KT 21/02 A3043 RMK A01 T02120018  RH  028%=      5-min Rain = 0
KFL1 211747Z 08003KT 21/02 A3043 RMK A01 T02110024  RH  029%=      5-min Rain = 0
KFL1 211748Z 10005KT 21/03 A3043 RMK A01 T02100030  RH  031%=      5-min Rain = 0
KFL1 211749Z 10004KT 21/04 A3043 RMK A01 T02110035  RH  031%=      5-min Rain = 0
KFL1 211750Z 07004KT 21/02 A3043 RMK A01 T02110019  RH  028%=      5-min Rain = 0
KFL1 211751Z 10003KT 21/03 A3043 RMK A01 T02110029  RH  030%=      5-min Rain = 0
KFL1 211752Z 09004KT 21/04 A3043 RMK A01 T02120035  RH  031%=      5-min Rain = 0
KFL1 211753Z 11002KT 21/03 A3043 RMK A01 T02110027  RH  030%=      5-min Rain = 0
KFL1 211754Z 11003KT 21/03 A3043 RMK A01 T02130030  RH  030%=      5-min Rain = 0
KFL1 211755Z 12004KT 21/03 A3043 RMK A01 T02120032  RH  030%=      5-min Rain = 0
KFL1 211756Z 11005KT 21/03 A3043 RMK A01 T02130030  RH  030%=      5-min Rain = 0
KFL1 211757Z 10006KT 21/03 A3043 RMK A01 T02120029  RH  030%=      5-min Rain = 0
KFL1 211758Z 10005KT 21/03 A3043 RMK A01 T02120034  RH  031%=      5-min Rain = 0
KFL1 211759Z 10004KT 21/05 A3043 RMK A01 T02120045  RH  034%=      5-min Rain = 0
KFL1 211800Z 12005KT 21/04 A3043 RMK A01 T02130042  RH  033%=      5-min Rain = 0
KFL1 211801Z 11003KT 22/03 A3043 RMK A01 T02160031  RH  030%=      5-min Rain = 0
KFL1 211802Z 11003KT 22/03 A3043 RMK A01 T02160031  RH  030%=      5-min Rain = 0
KFL1 211803Z 13004KT 22/02 A3043 RMK A01 T02160022  RH  028%=      5-min Rain = 0
KFL1 211804Z 14005KT 21/02 A3043 RMK A01 T02140024  RH  028%=      5-min Rain = 0
KFL1 211805Z 14007KT 22/03 A3043 RMK A01 T02150026  RH  029%=      5-min Rain = 0
KFL1 211806Z 14007KT 22/03 A3043 RMK A01 T02150028  RH  029%=      5-min Rain = 0
KFL1 211807Z 13003KT 21/02 A3043 RMK A01 T02140020  RH  028%=      5-min Rain = 0
KFL1 211808Z 06002KT 21/02 A3043 RMK A01 T02130021  RH  028%=      5-min Rain = 0
KFL1 211809Z 09003KT 21/03 A3043 RMK A01 T02130026  RH  029%=      5-min Rain = 0
KFL1 211810Z 09004KT 21/03 A3043 RMK A01 T02130031  RH  030%=      5-min Rain = 0
KFL1 211811Z 10003KT 21/03 A3043 RMK A01 T02120028  RH  030%=      5-min Rain = 0
KFL1 211812Z 11004KT 21/03 A3043 RMK A01 T02130033  RH  031%=      5-min Rain = 0
KFL1 211813Z 12004KT 22/03 A3043 RMK A01 T02150033  RH  030%=      5-min Rain = 0
KFL1 211814Z 10003KT 22/03 A3043 RMK A01 T02160027  RH  029%=      5-min Rain = 0
KFL1 211815Z 10007KT 22/04 A3043 RMK A01 T02180038  RH  031%=      5-min Rain = 0
KFL1 211816Z 12007KT 22/04 A3043 RMK A01 T02200040  RH  031%=      5-min Rain = 0
KFL1 211817Z 13006KT 22/03 A3042 RMK A01 T02200031  RH  029%=      5-min Rain = 0
KFL1 211818Z 13004KT 22/03 A3042 RMK A01 T02200027  RH  028%=      5-min Rain = 0
KFL1 211819Z 12004KT 22/03 A3042 RMK A01 T02180027  RH  028%=      5-min Rain = 0
KFL1 211820Z 12004KT 22/03 A3042 RMK A01 T02190027  RH  028%=      5-min Rain = 0
KFL1 211821Z 13004KT 22/03 A3042 RMK A01 T02200025  RH  028%=      5-min Rain = 0
KFL1 211822Z 13003KT 22/03 A3042 RMK A01 T02230026  RH  027%=      5-min Rain = 0
KFL1 211823Z 12005KT 22/03 A3042 RMK A01 T02230030  RH  028%=      5-min Rain = 0
KFL1 211824Z 13005KT 23/03 A3042 RMK A01 T02250034  RH  029%=      5-min Rain = 0
KFL1 211825Z 11006KT 23/04 A3042 RMK A01 T02280036  RH  028%=      5-min Rain = 0
KFL1 211826Z 11004KT 23/03 A3042 RMK A01 T02310031  RH  027%=      5-min Rain = 0
KFL1 211827Z 09005KT 23/02 A3042 RMK A01 T02300024  RH  026%=      5-min Rain = 0
KFL1 211828Z 09004KT 23/04 A3042 RMK A01 T02270035  RH  029%=      5-min Rain = 0
KFL1 211829Z 11005KT 23/04 A3042 RMK A01 T02270036  RH  029%=      5-min Rain = 0
KFL1 211830Z 10006KT 23/04 A3042 RMK A01 T02300042  RH  029%=      5-min Rain = 0
KFL1 211831Z 12005KT 23/04 A3042 RMK A01 T02310038  RH  028%=      5-min Rain = 0
KFL1 211832Z 11007KT 23/03 A3042 RMK A01 T02300032  RH  027%=      5-min Rain = 0
KFL1 211833Z 11007KT 23/04 A3042 RMK A01 T02270041  RH  030%=      5-min Rain = 0
KFL1 211834Z 12004KT 23/03 A3042 RMK A01 T02270029  RH  027%=      5-min Rain = 0
KFL1 211835Z 11005KT 22/02 A3042 RMK A01 T02240022  RH  026%=      5-min Rain = 0
KFL1 211836Z 10004KT 22/03 A3042 RMK A01 T02230028  RH  028%=      5-min Rain = 0
KFL1 211837Z 08004KT 22/03 A3042 RMK A01 T02210031  RH  029%=      5-min Rain = 0
KFL1 211838Z 08002KT 23/03 A3042 RMK A01 T02250032  RH  028%=      5-min Rain = 0
KFL1 211839Z 10003KT 23/03 A3042 RMK A01 T02280032  RH  028%=      5-min Rain = 0
KFL1 211840Z 13006KT 23/04 A3042 RMK A01 T02300035  RH  028%=      5-min Rain = 0
KFL1 211841Z 13006KT 23/02 A3042 RMK A01 T02310024  RH  026%=      5-min Rain = 0
KFL1 211842Z 12005KT 23/03 A3042 RMK A01 T02280028  RH  027%=      5-min Rain = 0
KFL1 211843Z 13003KT 23/03 A3042 RMK A01 T02270028  RH  027%=      5-min Rain = 0
KFL1 211844Z 13003KT 23/03 A3042 RMK A01 T02290026  RH  026%=      5-min Rain = 0
KFL1 211845Z 10001KT 23/02 A3042 RMK A01 T02300023  RH  026%=      5-min Rain = 0
KFL1 211846Z 07003KT 23/02 A3042 RMK A01 T02290023  RH  026%=      5-min Rain = 0
KFL1 211847Z 08004KT 23/03 A3042 RMK A01 T02290026  RH  026%=      5-min Rain = 0
KFL1 211848Z 08003KT 23/03 A3041 RMK A01 T02300029  RH  027%=      5-min Rain = 0
KFL1 211849Z 10002KT 23/02 A3041 RMK A01 T02320023  RH  025%=      5-min Rain = 0
KFL1 211850Z 17000KT 23/02 A3041 RMK A01 T02320021  RH  025%=      5-min Rain = 0
KFL1 211851Z 17002KT 23/02 A3041 RMK A01 T02320021  RH  025%=      5-min Rain = 0
KFL1 211852Z 16002KT 23/02 A3041 RMK A01 T02300018  RH  025%=      5-min Rain = 0
KFL1 211853Z 11000KT 23/02 A3041 RMK A01 T02300023  RH  026%=      5-min Rain = 0
KFL1 211854Z 26001KT 23/03 A3041 RMK A01 T02320031  RH  027%=      5-min Rain = 0
KFL1 211855Z 28001KT 24/03 A3041 RMK A01 T02350028  RH  026%=      5-min Rain = 0
KFL1 211856Z 05001KT 24/02 A3041 RMK A01 T02350017  RH  024%=      5-min Rain = 0
KFL1 211857Z 09001KT 23/02 A3041 RMK A01 T02340021  RH  025%=      5-min Rain = 0
KFL1 211858Z 15000KT 23/02 A3041 RMK A01 T02340019  RH  024%=      5-min Rain = 0
KFL1 211859Z 11002KT 24/03 A3041 RMK A01 T02360031  RH  026%=      5-min Rain = 0
KFL1 211900Z 18005KT 24/03 A3041 RMK A01 T02390034  RH  026%=      5-min Rain = 0
KFL1 211901Z 18005KT 24/04 A3041 RMK A01 T02440035  RH  026%=      5-min Rain = 0
KFL1 211902Z 19005KT 25/03 A3041 RMK A01 T02480028  RH  024%=      5-min Rain = 0
KFL1 211903Z 20003KT 25/03 A3041 RMK A01 T02480029  RH  024%=      5-min Rain = 0
KFL1 211904Z 20003KT 25/04 A3041 RMK A01 T02490036  RH  025%=      5-min Rain = 0
KFL1 211905Z 19004KT 25/04 A3041 RMK A01 T02510037  RH  025%=      5-min Rain = 0
KFL1 211906Z 17004KT 25/03 A3041 RMK A01 T02530033  RH  024%=      5-min Rain = 0
KFL1 211907Z 17003KT 25/03 A3041 RMK A01 T02540030  RH  023%=      5-min Rain = 0
KFL1 211908Z 21002KT 25/02 A3041 RMK A01 T02510020  RH  022%=      5-min Rain = 0
KFL1 211909Z 21001KT 25/03 A3041 RMK A01 T02490026  RH  023%=      5-min Rain = 0
KFL1 211910Z 20004KT 25/03 A3041 RMK A01 T02470028  RH  024%=      5-min Rain = 0
KFL1 211911Z 20006KT 25/04 A3041 RMK A01 T02460037  RH  026%=      5-min Rain = 0
KFL1 211912Z 22004KT 25/04 A3041 RMK A01 T02480035  RH  025%=      5-min Rain = 0
KFL1 211913Z 23006G11KT 25/04 A304 RMK A01 T02490036  RH  025%=      5-min Rain = 0
KFL1 211914Z 24004KT 25/04 A304 RMK A01 T02510043  RH  026%=      5-min Rain = 0
KFL1 211915Z 23005KT 25/03 A304 RMK A01 T02510034  RH  025%=      5-min Rain = 0
KFL1 211916Z 23002KT 25/03 A304 RMK A01 T02510031  RH  024%=      5-min Rain = 0
KFL1 211917Z 27006KT 25/04 A304 RMK A01 T02500037  RH  025%=      5-min Rain = 0
KFL1 211918Z 26007KT 25/04 A304 RMK A01 T02510044  RH  026%=      5-min Rain = 0
KFL1 211919Z 23005KT 25/03 A304 RMK A01 T02520033  RH  024%=      5-min Rain = 0
KFL1 211920Z 24004KT 25/03 A304 RMK A01 T02500027  RH  023%=      5-min Rain = 0
KFL1 211921Z 21004KT 25/03 A304 RMK A01 T02480028  RH  024%=      5-min Rain = 0
KFL1 211922Z 27005KT 25/04 A304 RMK A01 T02490036  RH  025%=      5-min Rain = 0
KFL1 211923Z 28003KT 25/03 A304 RMK A01 T02490033  RH  025%=      5-min Rain = 0
KFL1 211924Z 22002KT 25/03 A304 RMK A01 T02510034  RH  024%=      5-min Rain = 0
KFL1 211925Z 17004KT 25/03 A304 RMK A01 T02520025  RH  023%=      5-min Rain = 0
KFL1 211926Z 21006KT 25/03 A304 RMK A01 T02510027  RH  023%=      5-min Rain = 0
KFL1 211927Z 24007G12KT 25/03 A304 RMK A01 T02500031  RH  024%=      5-min Rain = 0
KFL1 211928Z 25010KT 25/03 A304 RMK A01 T02510033  RH  024%=      5-min Rain = 0
KFL1 211929Z 25008KT 24/02 A304 RMK A01 T02440024  RH  024%=      5-min Rain = 0
KFL1 211930Z 26006KT 24/02 A304 RMK A01 T02380017  RH  023%=      5-min Rain = 0
KFL1 211931Z 20006KT 23/03 A304 RMK A01 T02340029  RH  026%=      5-min Rain = 0
KFL1 211932Z 22005KT 23/03 A304 RMK A01 T02320027  RH  026%=      5-min Rain = 0
KFL1 211933Z 23007KT 23/03 A304 RMK A01 T02320030  RH  027%=      5-min Rain = 0
KFL1 211934Z 24007KT 23/04 A304 RMK A01 T02340037  RH  028%=      5-min Rain = 0
KFL1 211935Z 24005KT 24/02 A304 RMK A01 T02350024  RH  025%=      5-min Rain = 0
KFL1 211936Z 26005KT 23/02 A304 RMK A01 T02330017  RH  024%=      5-min Rain = 0
KFL1 211937Z 26002KT 23/02 A3039 RMK A01 T02320015  RH  024%=      5-min Rain = 0
KFL1 211938Z 26004KT 23/02 A3039 RMK A01 T02310021  RH  025%=      5-min Rain = 0
KFL1 211939Z 25003KT 24/04 A304 RMK A01 T02360035  RH  027%=      5-min Rain = 0
KFL1 211940Z 25001KT 24/03 A304 RMK A01 T02410032  RH  026%=      5-min Rain = 0
KFL1 211941Z 22003KT 24/03 A304 RMK A01 T02440027  RH  024%=      5-min Rain = 0
KFL1 211942Z 30001KT 24/02 A304 RMK A01 T02440022  RH  023%=      5-min Rain = 0
KFL1 211943Z 05003G9KT 24/02 A304 RMK A01 T02430022  RH  024%=      5-min Rain = 0
KFL1 211944Z 04005KT 25/04 A304 RMK A01 T02460039  RH  026%=      5-min Rain = 0
KFL1 211945Z 03006G12KT 24/04 A304 RMK A01 T02430037  RH  026%=      5-min Rain = 0
KFL1 211946Z 01012KT 24/04 A304 RMK A01 T02380042  RH  028%=      5-min Rain = 0
KFL1 211947Z 01013KT 23/04 A304 RMK A01 T02330042  RH  029%=      5-min Rain = 0
KFL1 211948Z 01016KT 23/04 A3039 RMK A01 T02290038  RH  029%=      5-min Rain = 0
KFL1 211949Z 35015KT 22/03 A3039 RMK A01 T02230030  RH  028%=      5-min Rain = 0
KFL1 211950Z 35015KT 22/04 A3039 RMK A01 T02210035  RH  030%=      5-min Rain = 0
KFL1 211951Z 34014KT 22/03 A3039 RMK A01 T02190033  RH  030%=      5-min Rain = 0
KFL1 211952Z 36016KT 22/04 A3039 RMK A01 T02170035  RH  030%=      5-min Rain = 0
KFL1 211953Z 36018G23KT 21/04 A3039 RMK A01 T02140038  RH  031%=      5-min Rain = 0
KFL1 211954Z 35020G26KT 21/03 A3039 RMK A01 T02100032  RH  031%=      5-min Rain = 0
KFL1 211955Z 35018KT 21/03 A304 RMK A01 T02070033  RH  032%=      5-min Rain = 0
KFL1 211956Z 34015KT 21/04 A304 RMK A01 T02070035  RH  032%=      5-min Rain = 0
KFL1 211957Z 34016KT 21/04 A304 RMK A01 T02070037  RH  033%=      5-min Rain = 0
KFL1 211958Z 34012KT 21/04 A304 RMK A01 T02100040  RH  033%=      5-min Rain = 0
KFL1 211959Z 33014G21KT 21/04 A304 RMK A01 T02120040  RH  032%=      5-min Rain = 0
KFL1 212000Z 34016G21KT 21/04 A3039 RMK A01 T02130037  RH  031%=      5-min Rain = 0
KFL1 212001Z 34015G20KT 21/03 A3039 RMK A01 T02120034  RH  031%=      5-min Rain = 0
KFL1 212002Z 34017G22KT 21/04 A3039 RMK A01 T02090036  RH  032%=      5-min Rain = 0
KFL1 212003Z 35018KT 21/03 A3039 RMK A01 T02070034  RH  032%=      5-min Rain = 0
KFL1 212004Z 35017G23KT 20/04 A3039 RMK A01 T02040036  RH  033%=      5-min Rain = 0
KFL1 212005Z 35022G28KT 20/04 A3039 RMK A01 T02030040  RH  034%=      5-min Rain = 0
KFL1 212006Z 35021KT 20/04 A3039 RMK A01 T02000039  RH  034%=      5-min Rain = 0
KFL1 212007Z 35019KT 20/04 A304 RMK A01 T01990040  RH  035%=      5-min Rain = 0
KFL1 212008Z 35019KT 20/04 A304 RMK A01 T01990041  RH  035%=      5-min Rain = 0
KFL1 212009Z 36018KT 20/04 A304 RMK A01 T01990040  RH  035%=      5-min Rain = 0
KFL1 212010Z 35017KT 20/04 A304 RMK A01 T01990035  RH  034%=      5-min Rain = 0
KFL1 212011Z 00022KT 20/04 A3039 RMK A01 T01990036  RH  034%=      5-min Rain = 0
KFL1 212012Z 35015G21KT 20/03 A3039 RMK A01 T02000032  RH  033%=      5-min Rain = 0
KFL1 212013Z 01010KT 20/04 A3039 RMK A01 T02040039  RH  034%=      5-min Rain = 0
KFL1 212014Z 35018KT 21/04 A3039 RMK A01 T02080041  RH  033%=      5-min Rain = 0
KFL1 212015Z 36021KT 21/04 A3039 RMK A01 T02110040  RH  033%=      5-min Rain = 0
KFL1 212016Z 00022KT 21/03 A3039 RMK A01 T02120032  RH  031%=      5-min Rain = 0
KFL1 212017Z 00020G26KT 21/03 A3039 RMK A01 T02060026  RH  030%=      5-min Rain = 0
KFL1 212018Z 00016KT 20/03 A3039 RMK A01 T02030027  RH  031%=      5-min Rain = 0
KFL1 212019Z 00016KT 20/03 A3039 RMK A01 T02010031  RH  032%=      5-min Rain = 0
KFL1 212020Z 00015KT 20/03 A3039 RMK A01 T02020030  RH  032%=      5-min Rain = 0
KFL1 212021Z 36016KT 21/03 A3039 RMK A01 T02050030  RH  031%=      5-min Rain = 0
KFL1 212022Z 36016KT 20/03 A3039 RMK A01 T02040027  RH  031%=      5-min Rain = 0
KFL1 212023Z 36018KT 21/03 A3039 RMK A01 T02050025  RH  030%=      5-min Rain = 0
KFL1 212024Z 35018KT 21/03 A3039 RMK A01 T02050027  RH  031%=      5-min Rain = 0
KFL1 212025Z 35021KT 21/03 A3039 RMK A01 T02070028  RH  031%=      5-min Rain = 0
KFL1 212026Z 35020KT 21/03 A3039 RMK A01 T02080028  RH  030%=      5-min Rain = 0
KFL1 212027Z 35018G23KT 21/03 A3039 RMK A01 T02060029  RH  031%=      5-min Rain = 0
KFL1 212028Z 35017KT 21/03 A3039 RMK A01 T02090032  RH  031%=      5-min Rain = 0
KFL1 212029Z 34018G24KT 21/03 A3038 RMK A01 T02140032  RH  030%=      5-min Rain = 0
KFL1 212030Z 34015KT 22/04 A3038 RMK A01 T02180039  RH  031%=      5-min Rain = 0
KFL1 212031Z 34019KT 23/04 A3038 RMK A01 T02250037  RH  029%=      5-min Rain = 0
KFL1 212032Z 34019KT 22/03 A3038 RMK A01 T02240032  RH  028%=      5-min Rain = 0
KFL1 212033Z 34017KT 22/03 A3038 RMK A01 T02220031  RH  028%=      5-min Rain = 0
KFL1 212034Z 35014KT 22/04 A3038 RMK A01 T02230042  RH  031%=      5-min Rain = 0
KFL1 212035Z 34012G17KT 23/04 A3038 RMK A01 T02290043  RH  030%=      5-min Rain = 0
KFL1 212036Z 34013KT 23/04 A3038 RMK A01 T02310038  RH  028%=      5-min Rain = 0
KFL1 212037Z 34016KT 23/03 A3038 RMK A01 T02310033  RH  027%=      5-min Rain = 0
KFL1 212038Z 35017KT 23/03 A3038 RMK A01 T02300033  RH  028%=      5-min Rain = 0
KFL1 212039Z 34015G20KT 23/03 A3038 RMK A01 T02280028  RH  027%=      5-min Rain = 0
KFL1 212040Z 33016KT 23/03 A3038 RMK A01 T02280028  RH  027%=      5-min Rain = 0
KFL1 212041Z 34017G22KT 23/03 A3038 RMK A01 T02290029  RH  027%=      5-min Rain = 0
KFL1 212042Z 35016KT 23/03 A3038 RMK A01 T02280027  RH  027%=      5-min Rain = 0
KFL1 212043Z 35017KT 23/03 A3038 RMK A01 T02270027  RH  027%=      5-min Rain = 0
KFL1 212044Z 34015KT 23/03 A3038 RMK A01 T02270031  RH  028%=      5-min Rain = 0
KFL1 212045Z 34017KT 23/03 A3038 RMK A01 T02290030  RH  027%=      5-min Rain = 0
KFL1 212046Z 35015G20KT 23/03 A3038 RMK A01 T02330028  RH  026%=      5-min Rain = 0
KFL1 212047Z 35013KT 23/03 A3038 RMK A01 T02310032  RH  027%=      5-min Rain = 0
KFL1 212048Z 35017KT 23/03 A3038 RMK A01 T02340034  RH  027%=      5-min Rain = 0
KFL1 212049Z 34015G21KT 24/04 A3038 RMK A01 T02350035  RH  027%=      5-min Rain = 0
KFL1 212050Z 34014KT 23/04 A3038 RMK A01 T02330037  RH  028%=      5-min Rain = 0
KFL1 212051Z 35016KT 23/03 A3038 RMK A01 T02320034  RH  027%=      5-min Rain = 0
KFL1 212052Z 34012KT 23/04 A3038 RMK A01 T02280036  RH  028%=      5-min Rain = 0
KFL1 212053Z 35014KT 23/04 A3038 RMK A01 T02280035  RH  028%=      5-min Rain = 0
KFL1 212054Z 34012KT 22/03 A3038 RMK A01 T02220032  RH  029%=      5-min Rain = 0
KFL1 212055Z 34014KT 22/04 A3038 RMK A01 T02240038  RH  030%=      5-min Rain = 0
KFL1 212056Z 35013KT 23/04 A3038 RMK A01 T02270038  RH  029%=      5-min Rain = 0
KFL1 212057Z 34012KT 23/04 A3038 RMK A01 T02320037  RH  028%=      5-min Rain = 0
KFL1 212058Z 34012KT 24/03 A3038 RMK A01 T02350033  RH  027%=      5-min Rain = 0
KFL1 212059Z 33010KT 24/03 A3038 RMK A01 T02370032  RH  026%=      5-min Rain = 0
KFL1 212100Z 33012KT 24/03 A3038 RMK A01 T02370032  RH  026%=      5-min Rain = 0
KFL1 212101Z 35012KT 24/03 A3038 RMK A01 T02380032  RH  026%=      5-min Rain = 0
KFL1 212102Z 35011KT 24/03 A3038 RMK A01 T02370032  RH  026%=      5-min Rain = 0
KFL1 212103Z 33010KT 24/03 A3038 RMK A01 T02360030  RH  026%=      5-min Rain = 0
KFL1 212104Z 33011KT 24/04 A3037 RMK A01 T02380036  RH  027%=      5-min Rain = 0
KFL1 212105Z 33012KT 24/04 A3038 RMK A01 T02430040  RH  027%=      5-min Rain = 0
KFL1 212106Z 33014KT 24/03 A3038 RMK A01 T02440033  RH  025%=      5-min Rain = 0
KFL1 212107Z 33014KT 24/03 A3038 RMK A01 T02430028  RH  025%=      5-min Rain = 0
KFL1 212108Z 32011KT 24/03 A3038 RMK A01 T02400029  RH  025%=      5-min Rain = 0
KFL1 212109Z 34012KT 24/04 A3037 RMK A01 T02410035  RH  026%=      5-min Rain = 0
KFL1 212110Z 36014KT 24/03 A3038 RMK A01 T02420029  RH  025%=      5-min Rain = 0
KFL1 212111Z 00016KT 24/03 A3038 RMK A01 T02400033  RH  026%=      5-min Rain = 0
KFL1 212112Z 00017G22KT 24/03 A3037 RMK A01 T02380031  RH  026%=      5-min Rain = 0
KFL1 212113Z 36016KT 24/02 A3037 RMK A01 T02350023  RH  025%=      5-min Rain = 0
KFL1 212114Z 36012G18KT 23/02 A3037 RMK A01 T02300023  RH  026%=      5-min Rain = 0
KFL1 212115Z 35017KT 23/03 A3037 RMK A01 T02290031  RH  027%=      5-min Rain = 0
KFL1 212116Z 35016KT 23/03 A3037 RMK A01 T02310030  RH  027%=      5-min Rain = 0
KFL1 212117Z 35015KT 23/03 A3037 RMK A01 T02300025  RH  026%=      5-min Rain = 0
KFL1 212118Z 34012KT 23/03 A3037 RMK A01 T02300029  RH  027%=      5-min Rain = 0
KFL1 212119Z 34012G18KT 23/03 A3037 RMK A01 T02320031  RH  027%=      5-min Rain = 0
KFL1 212120Z 34015KT 23/03 A3037 RMK A01 T02340028  RH  026%=      5-min Rain = 0
KFL1 212121Z 33012KT 23/03 A3037 RMK A01 T02330029  RH  026%=      5-min Rain = 0
KFL1 212122Z 33015KT 23/03 A3037 RMK A01 T02340030  RH  026%=      5-min Rain = 0
KFL1 212123Z 33016KT 24/02 A3037 RMK A01 T02360023  RH  025%=      5-min Rain = 0
KFL1 212124Z 34018KT 23/02 A3037 RMK A01 T02320019  RH  025%=      5-min Rain = 0
KFL1 212125Z 33017KT 23/02 A3037 RMK A01 T02320022  RH  025%=      5-min Rain = 0
KFL1 212126Z 33018KT 23/03 A3037 RMK A01 T02310025  RH  026%=      5-min Rain = 0
KFL1 212127Z 33017KT 23/02 A3037 RMK A01 T02280023  RH  026%=      5-min Rain = 0
KFL1 212128Z 34017KT 23/03 A3037 RMK A01 T02270025  RH  027%=      5-min Rain = 0
KFL1 212129Z 34015KT 22/02 A3037 RMK A01 T02240023  RH  027%=      5-min Rain = 0
KFL1 212130Z 34019KT 23/03 A3037 RMK A01 T02260033  RH  028%=      5-min Rain = 0
KFL1 212131Z 34016G26KT 23/03 A3037 RMK A01 T02250032  RH  028%=      5-min Rain = 0
KFL1 212132Z 35021KT 23/03 A3037 RMK A01 T02250030  RH  028%=      5-min Rain = 0
KFL1 212133Z 34020KT 23/03 A3037 RMK A01 T02250033  RH  028%=      5-min Rain = 0
KFL1 212134Z 34019KT 23/03 A3037 RMK A01 T02250031  RH  028%=      5-min Rain = 0
KFL1 212135Z 34021G26KT 22/03 A3037 RMK A01 T02230027  RH  028%=      5-min Rain = 0
KFL1 212136Z 35022G27KT 22/03 A3037 RMK A01 T02220029  RH  028%=      5-min Rain = 0
KFL1 212137Z 34020KT 22/03 A3037 RMK A01 T02200028  RH  028%=      5-min Rain = 0
KFL1 212138Z 34018G23KT 22/03 A3037 RMK A01 T02200028  RH  028%=      5-min Rain = 0
KFL1 212139Z 34015KT 22/03 A3037 RMK A01 T02180026  RH  028%=      5-min Rain = 0
KFL1 212140Z 35020KT 22/03 A3037 RMK A01 T02190029  RH  029%=      5-min Rain = 0
KFL1 212141Z 35020KT 22/03 A3037 RMK A01 T02190030  RH  029%=      5-min Rain = 0
KFL1 212142Z 35019KT 22/03 A3037 RMK A01 T02210028  RH  028%=      5-min Rain = 0
KFL1 212143Z 34020G25KT 22/02 A3037 RMK A01 T02200023  RH  027%=      5-min Rain = 0
KFL1 212144Z 35018KT 22/02 A3037 RMK A01 T02200022  RH  027%=      5-min Rain = 0
KFL1 212145Z 00014KT 22/02 A3037 RMK A01 T02190019  RH  027%=      5-min Rain = 0
KFL1 212146Z 35014G19KT 22/03 A3036 RMK A01 T02190026  RH  028%=      5-min Rain = 0
KFL1 212147Z 34014KT 22/02 A3036 RMK A01 T02220021  RH  027%=      5-min Rain = 0
KFL1 212148Z 34014KT 23/02 A3037 RMK A01 T02280017  RH  025%=      5-min Rain = 0
KFL1 212149Z 33012KT 23/01 A3037 RMK A01 T02250011  RH  024%=      5-min Rain = 0
KFL1 212150Z 33011KT 23/02 A3036 RMK A01 T02270017  RH  025%=      5-min Rain = 0
KFL1 212151Z 34013KT 23/02 A3036 RMK A01 T02280020  RH  025%=      5-min Rain = 0
KFL1 212152Z 35015KT 23/02 A3036 RMK A01 T02270019  RH  025%=      5-min Rain = 0
KFL1 212153Z 34011KT 22/02 A3036 RMK A01 T02230018  RH  026%=      5-min Rain = 0
KFL1 212154Z 35014G19KT 23/03 A3036 RMK A01 T02250029  RH  028%=      5-min Rain = 0
KFL1 212155Z 34016KT 23/03 A3036 RMK A01 T02280025  RH  026%=      5-min Rain = 0
KFL1 212156Z 33012G17KT 23/02 A3036 RMK A01 T02290021  RH  025%=      5-min Rain = 0
KFL1 212157Z 33012KT 23/02 A3036 RMK A01 T02290019  RH  025%=      5-min Rain = 0
KFL1 212158Z 34009KT 23/02 A3036 RMK A01 T02290022  RH  026%=      5-min Rain = 0
KFL1 212159Z 33011KT 23/03 A3036 RMK A01 T02320026  RH  026%=      5-min Rain = 0
KFL1 212200Z 32013KT 23/02 A3036 RMK A01 T02310023  RH  025%=      5-min Rain = 0
KFL1 212201Z 33014KT 23/02 A3036 RMK A01 T02320020  RH  025%=      5-min Rain = 0
KFL1 212202Z 33011KT 23/02 A3036 RMK A01 T02310020  RH  025%=      5-min Rain = 0
KFL1 212203Z 34010KT 23/02 A3036 RMK A01 T02300020  RH  025%=      5-min Rain = 0
KFL1 212204Z 34008KT 23/03 A3036 RMK A01 T02300029  RH  027%=      5-min Rain = 0
KFL1 212205Z 32010G17KT 23/02 A3036 RMK A01 T02320022  RH  025%=      5-min Rain = 0
KFL1 212206Z 32013KT 23/02 A3036 RMK A01 T02310022  RH  025%=      5-min Rain = 0
KFL1 212207Z 33012KT 23/02 A3036 RMK A01 T02290019  RH  025%=      5-min Rain = 0
KFL1 212208Z 32013KT 23/03 A3036 RMK A01 T02290025  RH  026%=      5-min Rain = 0
KFL1 212209Z 32012KT 23/03 A3036 RMK A01 T02310027  RH  026%=      5-min Rain = 0
KFL1 212210Z 31012KT 23/02 A3036 RMK A01 T02310022  RH  025%=      5-min Rain = 0
KFL1 212211Z 31014KT 23/02 A3036 RMK A01 T02300024  RH  026%=      5-min Rain = 0
KFL1 212212Z 31015G20KT 23/02 A3036 RMK A01 T02280019  RH  025%=      5-min Rain = 0
KFL1 212213Z 31015KT 23/03 A3036 RMK A01 T02260026  RH  027%=      5-min Rain = 0
KFL1 212214Z 32014KT 23/02 A3036 RMK A01 T02250020  RH  026%=      5-min Rain = 0
KFL1 212215Z 31012KT 23/02 A3036 RMK A01 T02250020  RH  026%=      5-min Rain = 0
KFL1 212216Z 32009KT 23/02 A3036 RMK A01 T02250021  RH  026%=      5-min Rain = 0
KFL1 212217Z 32012KT 23/03 A3036 RMK A01 T02250025  RH  027%=      5-min Rain = 0
KFL1 212218Z 33013KT 23/03 A3036 RMK A01 T02270029  RH  027%=      5-min Rain = 0
KFL1 212219Z 35010KT 23/02 A3036 RMK A01 T02260022  RH  026%=      5-min Rain = 0
KFL1 212220Z 34011G16KT 23/03 A3036 RMK A01 T02280029  RH  027%=      5-min Rain = 0
KFL1 212221Z 34012KT 23/03 A3036 RMK A01 T02280025  RH  026%=      5-min Rain = 0
KFL1 212222Z 35010KT 23/02 A3036 RMK A01 T02270020  RH  026%=      5-min Rain = 0
KFL1 212223Z 35010KT 23/03 A3036 RMK A01 T02260026  RH  027%=      5-min Rain = 0
KFL1 212224Z 34010KT 23/03 A3036 RMK A01 T02260028  RH  027%=      5-min Rain = 0
KFL1 212225Z 34009KT 23/03 A3036 RMK A01 T02270027  RH  027%=      5-min Rain = 0
KFL1 212226Z 34011KT 23/03 A3036 RMK A01 T02280029  RH  027%=      5-min Rain = 0
KFL1 212227Z 34012KT 23/03 A3036 RMK A01 T02280026  RH  026%=      5-min Rain = 0
KFL1 212228Z 34011KT 23/02 A3036 RMK A01 T02270022  RH  026%=      5-min Rain = 0
KFL1 212229Z 34008KT 23/02 A3036 RMK A01 T02270024  RH  026%=      5-min Rain = 0
KFL1 212230Z 35011KT 23/03 A3036 RMK A01 T02290031  RH  027%=      5-min Rain = 0
KFL1 212231Z 34011KT 23/03 A3036 RMK A01 T02290025  RH  026%=      5-min Rain = 0
KFL1 212232Z 33010KT 23/02 A3036 RMK A01 T02290024  RH  026%=      5-min Rain = 0
KFL1 212233Z 34010KT 23/02 A3036 RMK A01 T02290020  RH  025%=      5-min Rain = 0
KFL1 212234Z 33009KT 23/02 A3036 RMK A01 T02280018  RH  025%=      5-min Rain = 0
KFL1 212235Z 34009KT 23/02 A3036 RMK A01 T02280023  RH  026%=      5-min Rain = 0
KFL1 212236Z 34010KT 23/02 A3036 RMK A01 T02280021  RH  026%=      5-min Rain = 0
KFL1 212237Z 34010KT 23/02 A3036 RMK A01 T02300020  RH  025%=      5-min Rain = 0
KFL1 212238Z 33009KT 23/02 A3036 RMK A01 T02270015  RH  025%=      5-min Rain = 0
KFL1 212239Z 34010KT 23/02 A3036 RMK A01 T02270017  RH  025%=      5-min Rain = 0
KFL1 212240Z 35008KT 23/02 A3036 RMK A01 T02270021  RH  026%=      5-min Rain = 0
KFL1 212241Z 36009KT 23/02 A3036 RMK A01 T02260019  RH  026%=      5-min Rain = 0
KFL1 212242Z 35008KT 23/02 A3036 RMK A01 T02270019  RH  025%=      5-min Rain = 0
KFL1 212243Z 35008KT 23/02 A3036 RMK A01 T02270021  RH  026%=      5-min Rain = 0
KFL1 212244Z 00008KT 23/03 A3036 RMK A01 T02280025  RH  026%=      5-min Rain = 0
KFL1 212245Z 36007KT 23/02 A3036 RMK A01 T02270022  RH  026%=      5-min Rain = 0
KFL1 212246Z 36007KT 23/02 A3036 RMK A01 T02260021  RH  026%=      5-min Rain = 0
KFL1 212247Z 36005KT 23/03 A3036 RMK A01 T02270026  RH  027%=      5-min Rain = 0
KFL1 212248Z 36007KT 23/02 A3036 RMK A01 T02270021  RH  026%=      5-min Rain = 0
KFL1 212249Z 35007KT 23/02 A3036 RMK A01 T02290023  RH  026%=      5-min Rain = 0
KFL1 212250Z 00006KT 23/02 A3036 RMK A01 T02280016  RH  025%=      5-min Rain = 0
KFL1 212251Z 01005KT 23/02 A3035 RMK A01 T02290019  RH  025%=      5-min Rain = 0
KFL1 212252Z 02005KT 23/02 A3035 RMK A01 T02290021  RH  025%=      5-min Rain = 0
KFL1 212253Z 02008KT 23/02 A3035 RMK A01 T02300024  RH  026%=      5-min Rain = 0
KFL1 212254Z 01008KT 23/03 A3035 RMK A01 T02300026  RH  026%=      5-min Rain = 0
KFL1 212255Z 03006KT 23/02 A3035 RMK A01 T02280023  RH  026%=      5-min Rain = 0
KFL1 212256Z 04004KT 23/03 A3035 RMK A01 T02270026  RH  027%=      5-min Rain = 0
KFL1 212257Z 03004KT 23/04 A3035 RMK A01 T02300036  RH  028%=      5-min Rain = 0
KFL1 212258Z 01007KT 23/03 A3035 RMK A01 T02320032  RH  027%=      5-min Rain = 0
KFL1 212259Z 01006KT 23/03 A3035 RMK A01 T02340025  RH  026%=      5-min Rain = 0
KFL1 212300Z 35006KT 23/03 A3035 RMK A01 T02310025  RH  026%=      5-min Rain = 0
KFL1 212301Z 33005KT 23/04 A3035 RMK A01 T02290039  RH  029%=      5-min Rain = 0
KFL1 212302Z 32004KT 23/03 A3035 RMK A01 T02260034  RH  028%=      5-min Rain = 0
KFL1 212303Z 28004KT 23/03 A3035 RMK A01 T02260028  RH  027%=      5-min Rain = 0
KFL1 212304Z 26004KT 22/03 A3035 RMK A01 T02230030  RH  028%=      5-min Rain = 0
KFL1 212305Z 26004KT 23/03 A3035 RMK A01 T02250033  RH  028%=      5-min Rain = 0
KFL1 212306Z 26004KT 22/03 A3035 RMK A01 T02230025  RH  027%=      5-min Rain = 0
KFL1 212307Z 27004KT 22/03 A3035 RMK A01 T02210025  RH  028%=      5-min Rain = 0
KFL1 212308Z 28004KT 22/03 A3035 RMK A01 T02170029  RH  029%=      5-min Rain = 0
KFL1 212309Z 30005KT 22/03 A3035 RMK A01 T02160033  RH  030%=      5-min Rain = 0
KFL1 212310Z 30004KT 21/03 A3035 RMK A01 T02130025  RH  029%=      5-min Rain = 0
KFL1 212311Z 34002KT 21/02 A3035 RMK A01 T02110021  RH  028%=      5-min Rain = 0
KFL1 212312Z 00001KT 21/03 A3035 RMK A01 T02120025  RH  029%=      5-min Rain = 0
KFL1 212313Z 31002KT 21/02 A3035 RMK A01 T02120019  RH  028%=      5-min Rain = 0
KFL1 212314Z 30001KT 21/02 A3035 RMK A01 T02110022  RH  029%=      5-min Rain = 0
KFL1 212315Z 25002KT 21/03 A3035 RMK A01 T02110029  RH  030%=      5-min Rain = 0
KFL1 212316Z 24003KT 21/03 A3035 RMK A01 T02110028  RH  030%=      5-min Rain = 0
KFL1 212317Z 24003KT 21/03 A3035 RMK A01 T02110026  RH  029%=      5-min Rain = 0
KFL1 212318Z 24003KT 21/02 A3035 RMK A01 T02110024  RH  029%=      5-min Rain = 0
KFL1 212319Z 25003KT 21/03 A3035 RMK A01 T02120029  RH  030%=      5-min Rain = 0
KFL1 212320Z 26003KT 21/03 A3035 RMK A01 T02120030  RH  030%=      5-min Rain = 0
KFL1 212321Z 26003KT 21/03 A3035 RMK A01 T02110031  RH  031%=      5-min Rain = 0
KFL1 212322Z 27003KT 21/03 A3035 RMK A01 T02120032  RH  030%=      5-min Rain = 0
KFL1 212323Z 28003KT 22/03 A3035 RMK A01 T02150033  RH  030%=      5-min Rain = 0
KFL1 212324Z 27003KT 22/03 A3035 RMK A01 T02180034  RH  030%=      5-min Rain = 0
KFL1 212325Z 29002KT 22/04 A3035 RMK A01 T02210035  RH  030%=      5-min Rain = 0
KFL1 212326Z 31003KT 23/03 A3035 RMK A01 T02250029  RH  028%=      5-min Rain = 0
KFL1 212327Z 31002KT 23/03 A3035 RMK A01 T02290032  RH  027%=      5-min Rain = 0
KFL1 212328Z 33002KT 23/03 A3035 RMK A01 T02320029  RH  027%=      5-min Rain = 0
KFL1 212329Z 32001KT 23/02 A3035 RMK A01 T02330019  RH  024%=      5-min Rain = 0
KFL1 212330Z 35001KT 23/02 A3035 RMK A01 T02340015  RH  024%=      5-min Rain = 0
KFL1 212331Z 00002KT 24/02 A3035 RMK A01 T02370017  RH  024%=      5-min Rain = 0
KFL1 212332Z 01002KT 24/01 A3035 RMK A01 T02370014  RH  023%=      5-min Rain = 0
KFL1 212333Z 05001KT 24/03 A3035 RMK A01 T02350026  RH  025%=      5-min Rain = 0
KFL1 212334Z 13001KT 23/02 A3035 RMK A01 T02320020  RH  025%=      5-min Rain = 0
KFL1 212335Z 11002KT 23/02 A3035 RMK A01 T02310020  RH  025%=      5-min Rain = 0
KFL1 212336Z 09003KT 23/03 A3035 RMK A01 T02310029  RH  027%=      5-min Rain = 0
KFL1 212337Z 09002KT 23/03 A3035 RMK A01 T02270033  RH  028%=      5-min Rain = 0
KFL1 212338Z 14002KT 23/03 A3035 RMK A01 T02280030  RH  027%=      5-min Rain = 0
KFL1 212339Z 14004KT 23/03 A3035 RMK A01 T02280033  RH  028%=      5-min Rain = 0
KFL1 212340Z 15003KT 23/03 A3035 RMK A01 T02260032  RH  028%=      5-min Rain = 0
KFL1 212341Z 16002KT 23/03 A3035 RMK A01 T02270034  RH  028%=      5-min Rain = 0
KFL1 212342Z 14001KT 23/03 A3035 RMK A01 T02260026  RH  027%=      5-min Rain = 0
KFL1 212343Z 18001KT 23/03 A3035 RMK A01 T02250028  RH  027%=      5-min Rain = 0
KFL1 212344Z 20004KT 23/03 A3035 RMK A01 T02250025  RH  027%=      5-min Rain = 0
KFL1 212345Z 21003KT 23/03 A3035 RMK A01 T02250030  RH  028%=      5-min Rain = 0
KFL1 212346Z 20003KT 23/03 A3035 RMK A01 T02250027  RH  027%=      5-min Rain = 0
KFL1 212347Z 22002KT 23/03 A3035 RMK A01 T02270032  RH  028%=      5-min Rain = 0
KFL1 212348Z 18003KT 23/03 A3035 RMK A01 T02260027  RH  027%=      5-min Rain = 0
KFL1 212349Z 19003KT 23/03 A3035 RMK A01 T02250029  RH  027%=      5-min Rain = 0
KFL1 212350Z 19004KT 23/03 A3035 RMK A01 T02260030  RH  028%=      5-min Rain = 0
KFL1 212351Z 20005KT 23/03 A3035 RMK A01 T02250030  RH  028%=      5-min Rain = 0
KFL1 212352Z 19004KT 23/03 A3035 RMK A01 T02250027  RH  027%=      5-min Rain = 0
KFL1 212353Z 19004KT 22/03 A3035 RMK A01 T02240026  RH  027%=      5-min Rain = 0
KFL1 212354Z 19003KT 22/03 A3035 RMK A01 T02240028  RH  028%=      5-min Rain = 0
KFL1 212355Z 18003KT 22/03 A3035 RMK A01 T02230027  RH  028%=      5-min Rain = 0
KFL1 212356Z 18003KT 22/03 A3035 RMK A01 T02230028  RH  028%=      5-min Rain = 0
KFL1 212357Z 18002KT 22/03 A3035 RMK A01 T02220027  RH  028%=      5-min Rain = 0
KFL1 212358Z 18002KT 22/03 A3035 RMK A01 T02220030  RH  028%=      5-min Rain = 0
KFL1 212359Z 19002KT 22/03 A3035 RMK A01 T02210033  RH  029%=      5-min Rain = 0
KFL1 220000Z 19002KT 22/04 A3035 RMK A01 T02200035  RH  030%=      5-min Rain = 0
KFL1 220001Z 19003KT 22/03 A3035 RMK A01 T02200029  RH  028%=      5-min Rain = 0
KFL1 220002Z 19002KT 22/03 A3035 RMK A01 T02200031  RH  029%=      5-min Rain = 0
KFL1 220003Z 19002KT 22/03 A3035 RMK A01 T02200034  RH  030%=      5-min Rain = 0
KFL1 220004Z 19002KT 22/04 A3035 RMK A01 T02210036  RH  030%=      5-min Rain = 0
KFL1 220005Z 18002KT 22/03 A3035 RMK A01 T02200033  RH  029%=      5-min Rain = 0
KFL1 220006Z 19002KT 22/03 A3035 RMK A01 T02190034  RH  030%=      5-min Rain = 0
KFL1 220007Z 19001KT 22/03 A3035 RMK A01 T02190028  RH  028%=      5-min Rain = 0
KFL1 220008Z 16001KT 22/03 A3035 RMK A01 T02170028  RH  029%=      5-min Rain = 0
KFL1 220009Z 15001KT 22/03 A3035 RMK A01 T02170029  RH  029%=      5-min Rain = 0
KFL1 220010Z 13001KT 22/03 A3035 RMK A01 T02160032  RH  030%=      5-min Rain = 0
KFL1 220011Z 12001KT 22/03 A3035 RMK A01 T02150034  RH  030%=      5-min Rain = 0
KFL1 220012Z 12001KT 21/04 A3035 RMK A01 T02140035  RH  031%=      5-min Rain = 0
KFL1 220013Z 10001KT 21/03 A3035 RMK A01 T02140031  RH  030%=      5-min Rain = 0
KFL1 220014Z 09001KT 21/03 A3035 RMK A01 T02130032  RH  030%=      5-min Rain = 0
KFL1 220015Z 08001KT 21/02 A3035 RMK A01 T02110024  RH  029%=      5-min Rain = 0
KFL1 220016Z 08001KT 21/03 A3035 RMK A01 T02120027  RH  029%=      5-min Rain = 0
KFL1 220017Z 07001KT 21/03 A3035 RMK A01 T02110033  RH  031%=      5-min Rain = 0
KFL1 220018Z 07001KT 21/04 A3035 RMK A01 T02110037  RH  032%=      5-min Rain = 0
KFL1 220019Z 08001KT 21/03 A3035 RMK A01 T02100033  RH  031%=      5-min Rain = 0
KFL1 220020Z 08001KT 21/03 A3035 RMK A01 T02110029  RH  030%=      5-min Rain = 0
KFL1 220021Z 07002KT 21/03 A3035 RMK A01 T02110027  RH  030%=      5-min Rain = 0
KFL1 220022Z 07001KT 21/03 A3035 RMK A01 T02100027  RH  030%=      5-min Rain = 0
KFL1 220023Z 07001KT 21/03 A3035 RMK A01 T02100027  RH  030%=      5-min Rain = 0
KFL1 220024Z 07002KT 21/03 A3035 RMK A01 T02100027  RH  030%=      5-min Rain = 0
KFL1 220025Z 07001KT 21/03 A3035 RMK A01 T02100026  RH  030%=      5-min Rain = 0
KFL1 220026Z 08001KT 21/03 A3035 RMK A01 T02090026  RH  030%=      5-min Rain = 0
KFL1 220027Z 08001KT 21/02 A3035 RMK A01 T02080024  RH  030%=      5-min Rain = 0
KFL1 220028Z 09001KT 21/02 A3035 RMK A01 T02070022  RH  029%=      5-min Rain = 0
KFL1 220029Z 09001KT 21/03 A3035 RMK A01 T02080025  RH  030%=      5-min Rain = 0
KFL1 220030Z 10001KT 21/02 A3035 RMK A01 T02070021  RH  029%=      5-min Rain = 0
KFL1 220031Z 10001KT 21/02 A3035 RMK A01 T02060019  RH  029%=      5-min Rain = 0
KFL1 220032Z 10001KT 21/02 A3035 RMK A01 T02060021  RH  029%=      5-min Rain = 0
KFL1 220033Z 11001KT 21/02 A3035 RMK A01 T02060022  RH  030%=      5-min Rain = 0
KFL1 220034Z 11000KT 21/02 A3035 RMK A01 T02050022  RH  030%=      5-min Rain = 0
KFL1 220035Z 11000KT 21/03 A3035 RMK A01 T02060028  RH  031%=      5-min Rain = 0
KFL1 220036Z 00000KT 20/08 A3035 RMK A01 T02040079  RH  045%=      5-min Rain = 0
KFL1 220037Z 00000KT 20/10 A3035 RMK A01 T02000102  RH  053%=      5-min Rain = 0
KFL1 220038Z 00000KT 20/11 A3035 RMK A01 T01950108  RH  057%=      5-min Rain = 0
KFL1 220039Z 00000KT 19/10 A3035 RMK A01 T01900103  RH  057%=      5-min Rain = 0
KFL1 220040Z 00000KT 19/08 A3035 RMK A01 T01860077  RH  049%=      5-min Rain = 0
KFL1 220041Z 04000KT 19/05 A3035 RMK A01 T01860052  RH  041%=      5-min Rain = 0
KFL1 220042Z 04000KT 19/04 A3035 RMK A01 T01860043  RH  039%=      5-min Rain = 0
KFL1 220043Z 00000KT 19/04 A3035 RMK A01 T01880037  RH  037%=      5-min Rain = 0
KFL1 220044Z 00000KT 19/03 A3035 RMK A01 T01890034  RH  036%=      5-min Rain = 0
KFL1 220045Z 00000KT 19/04 A3035 RMK A01 T01900043  RH  038%=      5-min Rain = 0
KFL1 220046Z 00000KT 19/09 A3035 RMK A01 T01880085  RH  051%=      5-min Rain = 0
KFL1 220047Z 00000KT 18/10 A3035 RMK A01 T01810095  RH  057%=      5-min Rain = 0
KFL1 220048Z 33000KT 17/07 A3035 RMK A01 T01730070  RH  051%=      5-min Rain = 0
KFL1 220049Z 33001KT 17/06 A3035 RMK A01 T01710059  RH  048%=      5-min Rain = 0
KFL1 220050Z 33002KT 17/05 A3035 RMK A01 T01710052  RH  046%=      5-min Rain = 0
KFL1 220051Z 33002KT 17/05 A3035 RMK A01 T01700047  RH  044%=      5-min Rain = 0
KFL1 220052Z 33003KT 17/05 A3035 RMK A01 T01720052  RH  045%=      5-min Rain = 0
KFL1 220053Z 33003KT 17/05 A3035 RMK A01 T01720049  RH  044%=      5-min Rain = 0
KFL1 220054Z 32002KT 17/05 A3035 RMK A01 T01710046  RH  043%=      5-min Rain = 0
KFL1 220055Z 32002KT 17/04 A3035 RMK A01 T01720042  RH  042%=      5-min Rain = 0
KFL1 220056Z 31001KT 17/03 A3035 RMK A01 T01740031  RH  039%=      5-min Rain = 0
KFL1 220057Z 31001KT 18/03 A3035 RMK A01 T01780030  RH  037%=      5-min Rain = 0
KFL1 220058Z 31000KT 18/02 A3035 RMK A01 T01800022  RH  035%=      5-min Rain = 0
KFL1 220059Z 00000KT 18/02 A3035 RMK A01 T01810024  RH  035%=      5-min Rain = 0
KFL1 220100Z 34001KT 18/05 A3035 RMK A01 T01820046  RH  041%=      5-min Rain = 0
KFL1 220101Z 32004KT 17/05 A3035 RMK A01 T01740049  RH  044%=      5-min Rain = 0
KFL1 220102Z 32003KT 17/04 A3035 RMK A01 T01680043  RH  044%=      5-min Rain = 0
KFL1 220103Z 31002KT 17/03 A3035 RMK A01 T01670033  RH  041%=      5-min Rain = 0
KFL1 220104Z 30002KT 17/04 A3035 RMK A01 T01680035  RH  041%=      5-min Rain = 0
KFL1 220105Z 30002KT 17/04 A3035 RMK A01 T01680042  RH  043%=      5-min Rain = 0
KFL1 220106Z 31002KT 16/05 A3035 RMK A01 T01640053  RH  048%=      5-min Rain = 0
KFL1 220107Z 31003KT 15/06 A3035 RMK A01 T01540060  RH  053%=      5-min Rain = 0
KFL1 220108Z 32003KT 14/06 A3035 RMK A01 T01440061  RH  057%=      5-min Rain = 0
KFL1 220109Z 31003KT 14/05 A3035 RMK A01 T01400048  RH  054%=      5-min Rain = 0
KFL1 220110Z 32003KT 14/06 A3035 RMK A01 T01380061  RH  059%=      5-min Rain = 0
KFL1 220111Z 31003KT 13/06 A3035 RMK A01 T01320055  RH  059%=      5-min Rain = 0
KFL1 220112Z 31003KT 13/06 A3035 RMK A01 T01330055  RH  059%=      5-min Rain = 0
KFL1 220113Z 31003KT 13/06 A3035 RMK A01 T01310060  RH  062%=      5-min Rain = 0
KFL1 220114Z 31002KT 13/06 A3035 RMK A01 T01250058  RH  064%=      5-min Rain = 0
KFL1 220115Z 31002KT 12/06 A3035 RMK A01 T01220060  RH  066%=      5-min Rain = 0
KFL1 220116Z 31002KT 12/06 A3035 RMK A01 T01180060  RH  067%=      5-min Rain = 0
KFL1 220117Z 32002KT 11/06 A3035 RMK A01 T01140059  RH  069%=      5-min Rain = 0
KFL1 220118Z 32003KT 11/06 A3035 RMK A01 T01110057  RH  069%=      5-min Rain = 0
KFL1 220119Z 33003KT 11/06 A3035 RMK A01 T01090056  RH  070%=      5-min Rain = 0
KFL1 220120Z 33003KT 11/05 A3035 RMK A01 T01090053  RH  069%=      5-min Rain = 0
KFL1 220121Z 34003KT 11/05 A3035 RMK A01 T01090050  RH  067%=      5-min Rain = 0
KFL1 220122Z 35003KT 11/05 A3035 RMK A01 T01100046  RH  065%=      5-min Rain = 0
KFL1 220123Z 02004KT 11/04 A3035 RMK A01 T01140042  RH  061%=      5-min Rain = 0
KFL1 220124Z 03004KT 12/04 A3035 RMK A01 T01170038  RH  058%=      5-min Rain = 0
KFL1 220125Z 03004KT 12/04 A3035 RMK A01 T01200038  RH  057%=      5-min Rain = 0
KFL1 220126Z 03004KT 12/04 A3035 RMK A01 T01230039  RH  056%=      5-min Rain = 0
KFL1 220127Z 03004KT 12/04 A3035 RMK A01 T01230041  RH  057%=      5-min Rain = 0
KFL1 220128Z 03005KT 12/04 A3035 RMK A01 T01220043  RH  059%=      5-min Rain = 0
KFL1 220129Z 03005KT 12/04 A3035 RMK A01 T01180040  RH  059%=      5-min Rain = 0
KFL1 220130Z 03005KT 12/04 A3035 RMK A01 T01180036  RH  057%=      5-min Rain = 0
KFL1 220131Z 03006KT 12/04 A3035 RMK A01 T01200036  RH  057%=      5-min Rain = 0
KFL1 220132Z 04006KT 12/03 A3035 RMK A01 T01230030  RH  053%=      5-min Rain = 0
KFL1 220133Z 04006KT 13/03 A3035 RMK A01 T01290031  RH  051%=      5-min Rain = 0
KFL1 220134Z 03006KT 13/03 A3035 RMK A01 T01330030  RH  050%=      5-min Rain = 0
KFL1 220135Z 03006KT 14/03 A3035 RMK A01 T01380031  RH  049%=      5-min Rain = 0
KFL1 220136Z 03006KT 14/03 A3035 RMK A01 T01390030  RH  048%=      5-min Rain = 0
KFL1 220137Z 03006KT 14/03 A3035 RMK A01 T01400031  RH  048%=      5-min Rain = 0
KFL1 220138Z 03006KT 14/03 A3035 RMK A01 T01410032  RH  048%=      5-min Rain = 0
KFL1 220139Z 03006KT 14/03 A3035 RMK A01 T01400030  RH  047%=      5-min Rain = 0
KFL1 220140Z 03006KT 14/03 A3035 RMK A01 T01400028  RH  047%=      5-min Rain = 0
KFL1 220141Z 03006KT 14/03 A3035 RMK A01 T01400028  RH  047%=      5-min Rain = 0
KFL1 220142Z 03006KT 14/03 A3035 RMK A01 T01400026  RH  046%=      5-min Rain = 0
KFL1 220143Z 03007KT 14/03 A3035 RMK A01 T01410026  RH  046%=      5-min Rain = 0
KFL1 220144Z 03006KT 14/03 A3035 RMK A01 T01390025  RH  046%=      5-min Rain = 0
KFL1 220145Z 03006KT 14/03 A3035 RMK A01 T01390028  RH  047%=      5-min Rain = 0
KFL1 220146Z 03006KT 14/03 A3035 RMK A01 T01370027  RH  048%=      5-min Rain = 0
KFL1 220147Z 03006KT 14/03 A3035 RMK A01 T01360026  RH  047%=      5-min Rain = 0
KFL1 220148Z 03006KT 13/03 A3035 RMK A01 T01340026  RH  048%=      5-min Rain = 0
KFL1 220149Z 03005KT 13/03 A3035 RMK A01 T01340027  RH  048%=      5-min Rain = 0
KFL1 220150Z 03005KT 13/03 A3035 RMK A01 T01330029  RH  049%=      5-min Rain = 0
KFL1 220151Z 03005KT 13/03 A3035 RMK A01 T01300032  RH  051%=      5-min Rain = 0
KFL1 220152Z 03005KT 12/03 A3035 RMK A01 T01230029  RH  053%=      5-min Rain = 0
KFL1 220153Z 03005KT 12/03 A3035 RMK A01 T01200030  RH  054%=      5-min Rain = 0
KFL1 220154Z 03005KT 12/03 A3035 RMK A01 T01200033  RH  055%=      5-min Rain = 0
KFL1 220155Z 03006KT 12/03 A3035 RMK A01 T01160031  RH  056%=      5-min Rain = 0
KFL1 220156Z 03006KT 12/03 A3035 RMK A01 T01150031  RH  056%=      5-min Rain = 0
KFL1 220157Z 03006KT 11/03 A3035 RMK A01 T01140030  RH  056%=      5-min Rain = 0
KFL1 220158Z 04005KT 11/03 A3035 RMK A01 T01140030  RH  056%=      5-min Rain = 0
KFL1 220159Z 04006KT 12/03 A3035 RMK A01 T01150027  RH  055%=      5-min Rain = 0
KFL1 220200Z 03006KT 12/03 A3035 RMK A01 T01170026  RH  054%=      5-min Rain = 0
KFL1 220201Z 03006KT 12/03 A3035 RMK A01 T01190025  RH  052%=      5-min Rain = 0
KFL1 220202Z 04006KT 12/03 A3035 RMK A01 T01210025  RH  052%=      5-min Rain = 0
KFL1 220203Z 04006KT 12/03 A3035 RMK A01 T01240028  RH  052%=      5-min Rain = 0
KFL1 220204Z 04006KT 13/03 A3035 RMK A01 T01250028  RH  052%=      5-min Rain = 0
KFL1 220205Z 04006KT 13/03 A3035 RMK A01 T01250029  RH  052%=      5-min Rain = 0
KFL1 220206Z 04006KT 13/03 A3035 RMK A01 T01250030  RH  052%=      5-min Rain = 0
KFL1 220207Z 04006KT 13/03 A3035 RMK A01 T01260031  RH  052%=      5-min Rain = 0
KFL1 220208Z 04007KT 13/03 A3035 RMK A01 T01250031  RH  052%=      5-min Rain = 0
KFL1 220209Z 04007KT 13/03 A3035 RMK A01 T01250030  RH  053%=      5-min Rain = 0
KFL1 220210Z 05008KT 13/03 A3035 RMK A01 T01250032  RH  053%=      5-min Rain = 0
KFL1 220211Z 05009KT 13/03 A3035 RMK A01 T01250033  RH  053%=      5-min Rain = 0
KFL1 220212Z 05010KT 12/03 A3035 RMK A01 T01240033  RH  054%=      5-min Rain = 0
KFL1 220213Z 04010KT 12/03 A3035 RMK A01 T01230032  RH  054%=      5-min Rain = 0
KFL1 220214Z 05010KT 12/03 A3035 RMK A01 T01210031  RH  054%=      5-min Rain = 0
KFL1 220215Z 05010KT 12/03 A3036 RMK A01 T01230032  RH  054%=      5-min Rain = 0
KFL1 220216Z 05011KT 12/03 A3036 RMK A01 T01230032  RH  054%=      5-min Rain = 0
KFL1 220217Z 05010KT 12/03 A3036 RMK A01 T01240033  RH  054%=      5-min Rain = 0
KFL1 220218Z 05010KT 12/03 A3036 RMK A01 T01240032  RH  054%=      5-min Rain = 0
KFL1 220219Z 05010KT 13/03 A3036 RMK A01 T01260033  RH  053%=      5-min Rain = 0
KFL1 220220Z 04009KT 13/03 A3036 RMK A01 T01250032  RH  053%=      5-min Rain = 0
KFL1 220221Z 04009KT 13/03 A3036 RMK A01 T01280032  RH  052%=      5-min Rain = 0
KFL1 220222Z 04008KT 13/03 A3036 RMK A01 T01280031  RH  051%=      5-min Rain = 0
KFL1 220223Z 04007KT 13/03 A3036 RMK A01 T01290030  RH  051%=      5-min Rain = 0
KFL1 220224Z 04008KT 13/03 A3036 RMK A01 T01300031  RH  051%=      5-min Rain = 0
KFL1 220225Z 04007KT 13/03 A3036 RMK A01 T01300029  RH  050%=      5-min Rain = 0
KFL1 220226Z 03007KT 13/03 A3036 RMK A01 T01330030  RH  050%=      5-min Rain = 0
KFL1 220227Z 03006KT 13/03 A3036 RMK A01 T01320029  RH  049%=      5-min Rain = 0
KFL1 220228Z 03007KT 13/03 A3036 RMK A01 T01330029  RH  049%=      5-min Rain = 0
KFL1 220229Z 03006KT 13/03 A3036 RMK A01 T01330028  RH  049%=      5-min Rain = 0
KFL1 220230Z 03005KT 13/03 A3036 RMK A01 T01330027  RH  049%=      5-min Rain = 0
KFL1 220231Z 02007KT 13/03 A3036 RMK A01 T01330028  RH  049%=      5-min Rain = 0
KFL1 220232Z 02007KT 13/03 A3036 RMK A01 T01300028  RH  050%=      5-min Rain = 0
KFL1 220233Z 02009KT 13/03 A3036 RMK A01 T01290029  RH  051%=      5-min Rain = 0
KFL1 220234Z 02008KT 13/03 A3036 RMK A01 T01260029  RH  051%=      5-min Rain = 0
KFL1 220235Z 02009KT 13/03 A3036 RMK A01 T01270027  RH  051%=      5-min Rain = 0
KFL1 220236Z 02009KT 13/03 A3036 RMK A01 T01280027  RH  050%=      5-min Rain = 0
KFL1 220237Z 02009KT 13/03 A3036 RMK A01 T01270026  RH  050%=      5-min Rain = 0
KFL1 220238Z 03007KT 13/03 A3036 RMK A01 T01280026  RH  050%=      5-min Rain = 0
KFL1 220239Z 03008KT 13/03 A3036 RMK A01 T01280026  RH  050%=      5-min Rain = 0
KFL1 220240Z 03007KT 13/03 A3036 RMK A01 T01280025  RH  049%=      5-min Rain = 0
KFL1 220241Z 04005KT 13/03 A3036 RMK A01 T01280025  RH  049%=      5-min Rain = 0
KFL1 220242Z 03006KT 13/02 A3036 RMK A01 T01280024  RH  049%=      5-min Rain = 0
KFL1 220243Z 03006KT 13/02 A3036 RMK A01 T01280023  RH  049%=      5-min Rain = 0
KFL1 220244Z 04006KT 13/02 A3036 RMK A01 T01280023  RH  049%=      5-min Rain = 0
KFL1 220245Z 04007KT 13/02 A3036 RMK A01 T01280024  RH  049%=      5-min Rain = 0
KFL1 220246Z 04008KT 13/03 A3036 RMK A01 T01270025  RH  050%=      5-min Rain = 0
KFL1 220247Z 04007KT 13/03 A3036 RMK A01 T01270027  RH  051%=      5-min Rain = 0
KFL1 220248Z 04008KT 13/03 A3036 RMK A01 T01250027  RH  051%=      5-min Rain = 0
KFL1 220249Z 04008KT 13/03 A3037 RMK A01 T01250028  RH  052%=      5-min Rain = 0
KFL1 220250Z 04008KT 12/03 A3037 RMK A01 T01240028  RH  052%=      5-min Rain = 0
KFL1 220251Z 04008KT 13/03 A3037 RMK A01 T01250029  RH  052%=      5-min Rain = 0
KFL1 220252Z 03008KT 12/03 A3037 RMK A01 T01230028  RH  052%=      5-min Rain = 0
KFL1 220253Z 04008KT 12/03 A3037 RMK A01 T01230028  RH  052%=      5-min Rain = 0
KFL1 220254Z 03007KT 12/03 A3037 RMK A01 T01240029  RH  053%=      5-min Rain = 0
KFL1 220255Z 03007KT 12/03 A3037 RMK A01 T01240030  RH  053%=      5-min Rain = 0
KFL1 220256Z 03007KT 12/03 A3037 RMK A01 T01230029  RH  053%=      5-min Rain = 0
KFL1 220257Z 03007KT 12/03 A3037 RMK A01 T01220027  RH  052%=      5-min Rain = 0
KFL1 220258Z 03006KT 12/03 A3037 RMK A01 T01220027  RH  052%=      5-min Rain = 0
KFL1 220259Z 03007KT 12/03 A3037 RMK A01 T01220026  RH  052%=      5-min Rain = 0
KFL1 220300Z 04007KT 12/03 A3037 RMK A01 T01220025  RH  051%=      5-min Rain = 0
KFL1 220301Z 04006KT 12/03 A3037 RMK A01 T01220025  RH  052%=      5-min Rain = 0
KFL1 220302Z 04007KT 12/03 A3037 RMK A01 T01220025  RH  052%=      5-min Rain = 0
KFL1 220303Z 04007KT 12/03 A3037 RMK A01 T01220026  RH  052%=      5-min Rain = 0
KFL1 220304Z 04007KT 12/03 A3037 RMK A01 T01200025  RH  052%=      5-min Rain = 0
KFL1 220305Z 04007KT 12/03 A3037 RMK A01 T01210027  RH  052%=      5-min Rain = 0
KFL1 220306Z 03007KT 12/03 A3037 RMK A01 T01200025  RH  052%=      5-min Rain = 0
KFL1 220307Z 04007KT 12/03 A3037 RMK A01 T01200025  RH  052%=      5-min Rain = 0
KFL1 220308Z 04007KT 12/03 A3037 RMK A01 T01190025  RH  052%=      5-min Rain = 0
KFL1 220309Z 03008KT 12/03 A3037 RMK A01 T01200025  RH  052%=      5-min Rain = 0
KFL1 220310Z 04007KT 12/02 A3037 RMK A01 T01190024  RH  052%=      5-min Rain = 0
KFL1 220311Z 04007KT 12/03 A3037 RMK A01 T01200025  RH  052%=      5-min Rain = 0
KFL1 220312Z 04008KT 12/03 A3037 RMK A01 T01190025  RH  052%=      5-min Rain = 0
KFL1 220313Z 04008KT 12/03 A3037 RMK A01 T01190025  RH  053%=      5-min Rain = 0
KFL1 220314Z 04007KT 12/03 A3037 RMK A01 T01190026  RH  053%=      5-min Rain = 0
KFL1 220315Z 04008KT 12/03 A3037 RMK A01 T01190027  RH  053%=      5-min Rain = 0
KFL1 220316Z 05009KT 12/03 A3037 RMK A01 T01170027  RH  054%=      5-min Rain = 0
KFL1 220317Z 04009KT 12/03 A3037 RMK A01 T01170027  RH  054%=      5-min Rain = 0
KFL1 220318Z 05009KT 12/03 A3037 RMK A01 T01170027  RH  054%=      5-min Rain = 0
KFL1 220319Z 04009KT 12/03 A3037 RMK A01 T01180027  RH  054%=      5-min Rain = 0
KFL1 220320Z 04009KT 12/03 A3037 RMK A01 T01170025  RH  053%=      5-min Rain = 0
KFL1 220321Z 04009KT 12/03 A3037 RMK A01 T01180025  RH  053%=      5-min Rain = 0
KFL1 220322Z 04008KT 12/03 A3037 RMK A01 T01180025  RH  053%=      5-min Rain = 0
KFL1 220323Z 05008KT 12/03 A3037 RMK A01 T01190026  RH  053%=      5-min Rain = 0
KFL1 220324Z 04009KT 12/03 A3037 RMK A01 T01190026  RH  053%=      5-min Rain = 0
KFL1 220325Z 04009KT 12/03 A3037 RMK A01 T01190026  RH  053%=      5-min Rain = 0
KFL1 220326Z 04009KT 12/03 A3037 RMK A01 T01190025  RH  053%=      5-min Rain = 0
KFL1 220327Z 04008KT 12/03 A3037 RMK A01 T01200026  RH  053%=      5-min Rain = 0
KFL1 220328Z 04008KT 12/03 A3037 RMK A01 T01210027  RH  052%=      5-min Rain = 0
KFL1 220329Z 04007KT 12/03 A3037 RMK A01 T01210026  RH  052%=      5-min Rain = 0
KFL1 220330Z 04007KT 12/03 A3037 RMK A01 T01210026  RH  052%=      5-min Rain = 0
KFL1 220331Z 03008KT 12/03 A3037 RMK A01 T01210025  RH  052%=      5-min Rain = 0
KFL1 220332Z 04008KT 12/03 A3037 RMK A01 T01210025  RH  052%=      5-min Rain = 0
KFL1 220333Z 04008KT 12/03 A3037 RMK A01 T01210025  RH  052%=      5-min Rain = 0
KFL1 220334Z 04008KT 12/03 A3037 RMK A01 T01220026  RH  052%=      5-min Rain = 0
KFL1 220335Z 04007KT 12/03 A3037 RMK A01 T01210025  RH  052%=      5-min Rain = 0
KFL1 220336Z 04007KT 12/03 A3037 RMK A01 T01220028  RH  053%=      5-min Rain = 0
KFL1 220337Z 04008KT 12/03 A3037 RMK A01 T01200027  RH  053%=      5-min Rain = 0
KFL1 220338Z 04009KT 12/03 A3037 RMK A01 T01180026  RH  053%=      5-min Rain = 0
KFL1 220339Z 04008KT 12/03 A3037 RMK A01 T01170026  RH  054%=      5-min Rain = 0
KFL1 220340Z 04008KT 12/03 A3037 RMK A01 T01180028  RH  054%=      5-min Rain = 0
KFL1 220341Z 04008KT 12/03 A3037 RMK A01 T01170027  RH  054%=      5-min Rain = 0
KFL1 220342Z 04008KT 12/03 A3037 RMK A01 T01170026  RH  054%=      5-min Rain = 0
KFL1 220343Z 04007KT 12/03 A3037 RMK A01 T01170027  RH  054%=      5-min Rain = 0
KFL1 220344Z 03007KT 12/03 A3037 RMK A01 T01160025  RH  054%=      5-min Rain = 0
KFL1 220345Z 03008KT 12/02 A3037 RMK A01 T01150024  RH  054%=      5-min Rain = 0
KFL1 220346Z 04007KT 12/03 A3037 RMK A01 T01170025  RH  053%=      5-min Rain = 0
KFL1 220347Z 04007KT 12/02 A3037 RMK A01 T01150024  RH  053%=      5-min Rain = 0
KFL1 220348Z 04008KT 12/02 A3037 RMK A01 T01150024  RH  054%=      5-min Rain = 0
KFL1 220349Z 04008KT 12/03 A3037 RMK A01 T01160026  RH  054%=      5-min Rain = 0
KFL1 220350Z 04008KT 12/03 A3037 RMK A01 T01160026  RH  054%=      5-min Rain = 0
KFL1 220351Z 04007KT 12/03 A3038 RMK A01 T01160027  RH  054%=      5-min Rain = 0
KFL1 220352Z 04007KT 12/03 A3038 RMK A01 T01150026  RH  054%=      5-min Rain = 0
KFL1 220353Z 05007KT 11/03 A3038 RMK A01 T01140025  RH  055%=      5-min Rain = 0
KFL1 220354Z 05007KT 11/03 A3038 RMK A01 T01140026  RH  055%=      5-min Rain = 0
KFL1 220355Z 05008KT 11/03 A3038 RMK A01 T01130027  RH  055%=      5-min Rain = 0
KFL1 220356Z 05008KT 11/03 A3038 RMK A01 T01120027  RH  056%=      5-min Rain = 0
KFL1 220357Z 05009KT 11/03 A3038 RMK A01 T01100026  RH  056%=      5-min Rain = 0
KFL1 220358Z 05008KT 11/03 A3038 RMK A01 T01100026  RH  056%=      5-min Rain = 0
KFL1 220359Z 05009KT 11/03 A3038 RMK A01 T01100025  RH  056%=      5-min Rain = 0
KFL1 220400Z 05009KT 11/02 A3038 RMK A01 T01100024  RH  055%=      5-min Rain = 0
KFL1 220401Z 04010KT 11/02 A3038 RMK A01 T01110024  RH  055%=      5-min Rain = 0
KFL1 220402Z 04010KT 12/03 A3038 RMK A01 T01150025  RH  054%=      5-min Rain = 0
KFL1 220403Z 04009KT 12/02 A3038 RMK A01 T01150023  RH  053%=      5-min Rain = 0
KFL1 220404Z 05009KT 12/02 A3038 RMK A01 T01170024  RH  053%=      5-min Rain = 0
KFL1 220405Z 04010KT 12/02 A3038 RMK A01 T01160023  RH  053%=      5-min Rain = 0
KFL1 220406Z 04010KT 12/02 A3038 RMK A01 T01170023  RH  053%=      5-min Rain = 0
KFL1 220407Z 04009KT 12/03 A3038 RMK A01 T01170025  RH  053%=      5-min Rain = 0
KFL1 220408Z 03007KT 12/03 A3038 RMK A01 T01170025  RH  053%=      5-min Rain = 0
KFL1 220409Z 03006KT 12/02 A3038 RMK A01 T01160024  RH  053%=      5-min Rain = 0
KFL1 220410Z 03006KT 12/03 A3038 RMK A01 T01150026  RH  054%=      5-min Rain = 0
KFL1 220411Z 03006KT 11/03 A3038 RMK A01 T01100029  RH  057%=      5-min Rain = 0
KFL1 220412Z 03007KT 10/03 A3038 RMK A01 T01040027  RH  059%=      5-min Rain = 0
KFL1 220413Z 04008KT 11/03 A3038 RMK A01 T01050025  RH  058%=      5-min Rain = 0
KFL1 220414Z 04008KT 11/02 A3038 RMK A01 T01070024  RH  057%=      5-min Rain = 0
KFL1 220415Z 04008KT 11/02 A3038 RMK A01 T01090024  RH  056%=      5-min Rain = 0
KFL1 220416Z 04008KT 11/03 A3038 RMK A01 T01130026  RH  055%=      5-min Rain = 0
KFL1 220417Z 04008KT 11/03 A3038 RMK A01 T01120025  RH  055%=      5-min Rain = 0
KFL1 220418Z 04009KT 11/03 A3038 RMK A01 T01130025  RH  054%=      5-min Rain = 0
KFL1 220419Z 04008KT 11/02 A3038 RMK A01 T01120023  RH  054%=      5-min Rain = 0
KFL1 220420Z 04008KT 11/02 A3038 RMK A01 T01130024  RH  054%=      5-min Rain = 0
KFL1 220421Z 05008KT 11/02 A3038 RMK A01 T01120023  RH  054%=      5-min Rain = 0
KFL1 220422Z 04008KT 11/02 A3038 RMK A01 T01130024  RH  054%=      5-min Rain = 0
KFL1 220423Z 05008KT 11/02 A3038 RMK A01 T01120023  RH  054%=      5-min Rain = 0
KFL1 220424Z 05008KT 11/02 A3038 RMK A01 T01130024  RH  054%=      5-min Rain = 0
KFL1 220425Z 05008KT 11/02 A3038 RMK A01 T01120024  RH  055%=      5-min Rain = 0
KFL1 220426Z 05007KT 11/02 A3038 RMK A01 T01100022  RH  055%=      5-min Rain = 0
KFL1 220427Z 05008KT 11/02 A3038 RMK A01 T01100023  RH  055%=      5-min Rain = 0
KFL1 220428Z 04010KT 11/02 A3038 RMK A01 T01100022  RH  055%=      5-min Rain = 0
KFL1 220429Z 05010KT 11/02 A3038 RMK A01 T01110022  RH  054%=      5-min Rain = 0
KFL1 220430Z 04010KT 11/02 A3038 RMK A01 T01130021  RH  053%=      5-min Rain = 0
KFL1 220431Z 05009KT 11/02 A3038 RMK A01 T01140021  RH  053%=      5-min Rain = 0
KFL1 220432Z 05009KT 12/02 A3038 RMK A01 T01150021  RH  052%=      5-min Rain = 0
KFL1 220433Z 04009KT 12/02 A3038 RMK A01 T01170022  RH  052%=      5-min Rain = 0
KFL1 220434Z 04009KT 12/02 A3038 RMK A01 T01160021  RH  052%=      5-min Rain = 0
KFL1 220435Z 05009KT 12/02 A3038 RMK A01 T01170022  RH  052%=      5-min Rain = 0
KFL1 220436Z 04009KT 12/02 A3038 RMK A01 T01160022  RH  052%=      5-min Rain = 0
KFL1 220437Z 04009KT 12/02 A3038 RMK A01 T01150021  RH  053%=      5-min Rain = 0
KFL1 220438Z 05009KT 12/02 A3038 RMK A01 T01150022  RH  053%=      5-min Rain = 0
KFL1 220439Z 05009KT 11/02 A3038 RMK A01 T01140022  RH  053%=      5-min Rain = 0
KFL1 220440Z 05009KT 11/02 A3038 RMK A01 T01140023  RH  053%=      5-min Rain = 0
KFL1 220441Z 04009KT 11/02 A3038 RMK A01 T01130022  RH  053%=      5-min Rain = 0
KFL1 220442Z 04009KT 11/02 A3038 RMK A01 T01130023  RH  054%=      5-min Rain = 0
KFL1 220443Z 04009KT 11/02 A3038 RMK A01 T01140023  RH  054%=      5-min Rain = 0
KFL1 220444Z 04010KT 11/02 A3038 RMK A01 T01140022  RH  053%=      5-min Rain = 0
KFL1 220445Z 04009KT 11/02 A3038 RMK A01 T01140021  RH  053%=      5-min Rain = 0
KFL1 220446Z 04009KT 11/02 A3038 RMK A01 T01140021  RH  053%=      5-min Rain = 0
KFL1 220447Z 05009KT 12/02 A3038 RMK A01 T01150022  RH  053%=      5-min Rain = 0
KFL1 220448Z 04008KT 12/02 A3038 RMK A01 T01150023  RH  053%=      5-min Rain = 0
KFL1 220449Z 04008KT 11/02 A3038 RMK A01 T01140023  RH  053%=      5-min Rain = 0
KFL1 220450Z 05011KT 11/02 A3038 RMK A01 T01130023  RH  054%=      5-min Rain = 0
KFL1 220451Z 04011KT 11/02 A3038 RMK A01 T01130023  RH  054%=      5-min Rain = 0
KFL1 220452Z 04011KT 11/02 A3038 RMK A01 T01120021  RH  054%=      5-min Rain = 0
KFL1 220453Z 04010KT 11/02 A3038 RMK A01 T01130022  RH  053%=      5-min Rain = 0
KFL1 220454Z 04010KT 12/02 A3038 RMK A01 T01150022  RH  053%=      5-min Rain = 0
KFL1 220455Z 04008KT 11/02 A3038 RMK A01 T01140021  RH  053%=      5-min Rain = 0
KFL1 220456Z 04009KT 12/02 A3038 RMK A01 T01160022  RH  053%=      5-min Rain = 0
KFL1 220457Z 04008KT 12/02 A3038 RMK A01 T01150021  RH  052%=      5-min Rain = 0
KFL1 220458Z 04008KT 12/02 A3038 RMK A01 T01160023  RH  053%=      5-min Rain = 0
KFL1 220459Z 04008KT 12/02 A3038 RMK A01 T01160023  RH  053%=      5-min Rain = 0

Page generated in 0.1333 seconds.